Wetterdaten: Donnerstag, 10.12.2020
Datum Zeit Temp. Aussen Temp. o. S. Temp +5cm Feuchte Auss Luftdruck Regen Sonnenschein Regendauer Solar Windben Empfang
10.12.2020 00:00 -0,9 C -1,7 C -2,3 C 96 % 1009,7 hPa 0,0 l/m 0 min 0 min 0 W/m 3,2 km/h (1 Bft) 97,87 %
10.12.2020 00:02 -0,9 C -1,7 C -2,3 C 96 % 1009,7 hPa 0,0 l/m 0 min 0 min 0 W/m 0,0 km/h (0 Bft) 97,56 %
10.12.2020 00:04 -0,9 C -1,7 C -2,3 C 96 % 1009,7 hPa 0,0 l/m 0 min 0 min 0 W/m 0,0 km/h (0 Bft) 97,87 %
10.12.2020 00:08 -0,9 C -1,7 C -2,3 C 96 % 1009,7 hPa 0,0 l/m 0 min 0 min 0 W/m 3,2 km/h (1 Bft) 96,81 %
10.12.2020 00:10 -0,9 C -1,7 C -2,3 C 96 % 1009,8 hPa 0,0 l/m 0 min 0 min 0 W/m 3,2 km/h (1 Bft) 95,74 %
10.12.2020 00:12 -0,9 C -1,7 C -2,3 C 96 % 1009,8 hPa 0,0 l/m 0 min 0 min 0 W/m 3,2 km/h (1 Bft) 97,87 %
10.12.2020 00:14 -0,9 C -1,7 C -2,3 C 96 % 1009,7 hPa 0,0 l/m 0 min 0 min 0 W/m 3,2 km/h (1 Bft) 97,83 %
10.12.2020 00:16 -0,9 C -1,7 C -2,3 C 96 % 1009,8 hPa 0,0 l/m 0 min 0 min 0 W/m 3,2 km/h (1 Bft) 97,87 %
10.12.2020 00:18 -0,9 C -1,7 C -2,3 C 96 % 1009,7 hPa 0,0 l/m 0 min 0 min 0 W/m 0,0 km/h (0 Bft) 97,87 %
10.12.2020 00:20 -0,9 C -1,7 C -2,3 C 96 % 1009,7 hPa 0,0 l/m 0 min 0 min 0 W/m 0,0 km/h (0 Bft) 97,87 %
10.12.2020 00:22 -0,9 C -1,7 C -2,3 C 96 % 1009,7 hPa 0,0 l/m 0 min 0 min 0 W/m 3,2 km/h (1 Bft) 97,87 %
10.12.2020 00:24 -0,9 C -1,7 C -2,3 C 96 % 1009,7 hPa 0,0 l/m 0 min 0 min 0 W/m 0,0 km/h (0 Bft) 97,83 %
10.12.2020 00:26 -0,9 C -1,7 C -2,3 C 96 % 1009,7 hPa 0,0 l/m 0 min 0 min 0 W/m 0,0 km/h (0 Bft) 97,87 %
10.12.2020 00:28 -0,9 C -1,7 C -2,3 C 96 % 1009,6 hPa 0,0 l/m 0 min 0 min 0 W/m 0,0 km/h (0 Bft) 97,87 %
10.12.2020 00:30 -0,9 C -1,7 C -2,3 C 96 % 1009,7 hPa 0,0 l/m 0 min 0 min 0 W/m 6,4 km/h (2 Bft) 97,67 %
10.12.2020 00:32 -0,9 C -1,7 C -2,3 C 96 % 1009,6 hPa 0,0 l/m 0 min 0 min 0 W/m 6,4 km/h (2 Bft) 97,96 %
10.12.2020 00:34 -0,9 C -1,7 C -2,3 C 96 % 1009,7 hPa 0,0 l/m 0 min 0 min 0 W/m 3,2 km/h (1 Bft) 97,87 %
10.12.2020 00:36 -0,9 C -1,7 C -2,3 C 96 % 1009,6 hPa 0,0 l/m 0 min 0 min 0 W/m 6,4 km/h (2 Bft) 97,92 %
10.12.2020 00:38 -0,9 C -1,7 C -2,3 C 96 % 1009,6 hPa 0,0 l/m 0 min 0 min 0 W/m 0,0 km/h (0 Bft) 97,87 %
10.12.2020 00:40 -0,9 C -1,7 C -2,3 C 96 % 1009,6 hPa 0,0 l/m 0 min 0 min 0 W/m 3,2 km/h (1 Bft) 97,87 %
10.12.2020 00:42 -0,9 C -1,7 C -2,3 C 96 % 1009,6 hPa 0,0 l/m 0 min 0 min 0 W/m 3,2 km/h (1 Bft) 72,34 %
10.12.2020 00:44 -0,9 C -1,7 C -2,3 C 96 % 1009,6 hPa 0,0 l/m 0 min 0 min 0 W/m 3,2 km/h (1 Bft) 80,00 %
10.12.2020 00:46 -1,0 C -1,7 C -2,3 C 96 % 1009,5 hPa 0,0 l/m 0 min 0 min 0 W/m 3,2 km/h (1 Bft) 97,87 %
10.12.2020 00:48 -0,9 C -1,7 C -2,3 C 96 % 1009,5 hPa 0,0 l/m 0 min 0 min 0 W/m 3,2 km/h (1 Bft) 97,87 %
10.12.2020 00:50 -1,0 C -1,7 C -2,3 C 96 % 1009,5 hPa 0,0 l/m 0 min 0 min 0 W/m 6,4 km/h (2 Bft) 97,87 %
10.12.2020 00:52 -1,0 C -1,7 C -2,3 C 96 % 1009,5 hPa 0,0 l/m 0 min 0 min 0 W/m 3,2 km/h (1 Bft) 97,87 %
10.12.2020 00:54 -1,0 C -1,7 C -2,3 C 96 % 1009,4 hPa 0,0 l/m 0 min 0 min 0 W/m 6,4 km/h (2 Bft) 97,83 %
10.12.2020 00:56 -1,0 C -1,7 C -2,3 C 96 % 1009,5 hPa 0,0 l/m 0 min 0 min 0 W/m 6,4 km/h (2 Bft) 97,87 %
10.12.2020 00:58 -1,0 C -1,7 C -2,3 C 96 % 1009,5 hPa 0,0 l/m 0 min 0 min 0 W/m 3,2 km/h (1 Bft) 97,87 %
10.12.2020 01:00 -1,0 C -1,7 C -2,3 C 96 % 1009,5 hPa 0,0 l/m 0 min 0 min 0 W/m 3,2 km/h (1 Bft) 93,62 %
10.12.2020 01:02 -1,0 C -1,7 C -2,3 C 96 % 1009,5 hPa 0,0 l/m 0 min 0 min 0 W/m 3,2 km/h (1 Bft) 97,87 %
10.12.2020 01:04 -1,0 C -1,7 C -2,3 C 96 % 1009,5 hPa 0,0 l/m 0 min 0 min 0 W/m 6,4 km/h (2 Bft) 97,87 %
10.12.2020 01:06 -1,0 C -1,7 C -2,3 C 96 % 1009,5 hPa 0,0 l/m 0 min 0 min 0 W/m 12,9 km/h (3 Bft) 95,65 %
10.12.2020 01:08 -1,0 C -1,7 C -2,3 C 96 % 1009,4 hPa 0,0 l/m 0 min 0 min 0 W/m 6,4 km/h (2 Bft) 95,74 %
10.12.2020 01:10 -1,0 C -1,7 C -2,3 C 96 % 1009,4 hPa 0,0 l/m 0 min 0 min 0 W/m 6,4 km/h (2 Bft) 100,00 %
10.12.2020 01:12 -1,0 C -1,7 C -2,3 C 96 % 1009,4 hPa 0,0 l/m 0 min 0 min 0 W/m 6,4 km/h (2 Bft) 100,00 %
10.12.2020 01:14 -1,0 C -1,7 C -2,3 C 96 % 1009,4 hPa 0,0 l/m 0 min 0 min 0 W/m 6,4 km/h (2 Bft) 95,74 %
10.12.2020 01:16 -1,0 C -1,7 C -2,3 C 96 % 1009,4 hPa 0,0 l/m 0 min 0 min 0 W/m 6,4 km/h (2 Bft) 97,87 %
10.12.2020 01:18 -0,9 C -1,7 C -2,3 C 96 % 1009,4 hPa 0,0 l/m 0 min 0 min 0 W/m 6,4 km/h (2 Bft) 97,83 %
10.12.2020 01:20 -0,9 C -1,7 C -2,3 C 96 % 1009,3 hPa 0,0 l/m 0 min 0 min 0 W/m 6,4 km/h (2 Bft) 97,87 %
10.12.2020 01:22 -0,9 C -1,7 C -2,3 C 96 % 1009,3 hPa 0,0 l/m 0 min 0 min 0 W/m 3,2 km/h (1 Bft) 97,87 %
10.12.2020 01:24 -0,9 C -1,7 C -2,3 C 96 % 1009,3 hPa 0,0 l/m 0 min 0 min 0 W/m 6,4 km/h (2 Bft) 93,62 %
10.12.2020 01:26 -0,9 C -1,7 C -2,3 C 96 % 1009,2 hPa 0,0 l/m 0 min 0 min 0 W/m 6,4 km/h (2 Bft) 97,87 %
10.12.2020 01:28 -0,9 C -1,7 C -2,3 C 96 % 1009,3 hPa 0,0 l/m 0 min 0 min 0 W/m 6,4 km/h (2 Bft) 97,83 %
10.12.2020 01:30 -0,9 C -1,7 C -2,3 C 96 % 1009,2 hPa 0,0 l/m 0 min 0 min 0 W/m 6,4 km/h (2 Bft) 95,74 %
10.12.2020 01:32 -0,9 C -1,7 C -2,3 C 96 % 1009,3 hPa 0,0 l/m 0 min 0 min 0 W/m 6,4 km/h (2 Bft) 97,87 %
10.12.2020 01:34 -0,9 C -1,7 C -2,3 C 96 % 1009,2 hPa 0,0 l/m 0 min 0 min 0 W/m 12,9 km/h (3 Bft) 95,74 %
10.12.2020 01:36 -0,9 C -1,7 C -2,3 C 96 % 1009,2 hPa 0,0 l/m 0 min 0 min 0 W/m 6,4 km/h (2 Bft) 97,87 %
10.12.2020 01:38 -0,9 C -1,1 C -2,3 C 96 % 1009,2 hPa 0,0 l/m 0 min 0 min 0 W/m 12,9 km/h (3 Bft) 97,87 %
10.12.2020 01:40 -0,9 C -1,1 C -2,3 C 96 % 1009,2 hPa 0,0 l/m 0 min 0 min 0 W/m 3,2 km/h (1 Bft) 97,83 %
10.12.2020 01:42 -0,9 C -1,1 C -2,3 C 96 % 1009,2 hPa 0,0 l/m 0 min 0 min 0 W/m 3,2 km/h (1 Bft) 97,87 %
10.12.2020 01:44 -0,9 C -1,1 C -2,3 C 96 % 1009,2 hPa 0,0 l/m 0 min 0 min 0 W/m 3,2 km/h (1 Bft) 95,74 %
10.12.2020 01:46 -0,9 C -1,1 C -2,3 C 96 % 1009,2 hPa 0,0 l/m 0 min 0 min 0 W/m 3,2 km/h (1 Bft) 93,62 %
10.12.2020 01:48 -0,9 C -1,1 C -2,3 C 97 % 1009,1 hPa 0,0 l/m 0 min 0 min 0 W/m 3,2 km/h (1 Bft) 93,62 %
10.12.2020 01:50 -0,9 C -1,1 C -2,3 C 97 % 1009,1 hPa 0,0 l/m 0 min 0 min 0 W/m 6,4 km/h (2 Bft) 95,74 %
10.12.2020 01:52 -0,9 C -1,1 C -2,3 C 97 % 1009,1 hPa 0,0 l/m 0 min 0 min 0 W/m 3,2 km/h (1 Bft) 93,48 %
10.12.2020 01:54 -0,9 C -1,1 C -2,3 C 97 % 1009,0 hPa 0,0 l/m 0 min 0 min 0 W/m 6,4 km/h (2 Bft) 95,74 %
10.12.2020 01:56 -0,9 C -1,1 C -2,3 C 97 % 1009,1 hPa 0,0 l/m 0 min 0 min 0 W/m 6,4 km/h (2 Bft) 97,87 %
10.12.2020 01:58 -0,8 C -1,1 C -2,3 C 97 % 1009,0 hPa 0,0 l/m 0 min 0 min 0 W/m 3,2 km/h (1 Bft) 97,87 %
10.12.2020 02:00 -0,8 C -1,1 C -2,3 C 97 % 1009,0 hPa 0,0 l/m 0 min 0 min 0 W/m 12,9 km/h (3 Bft) 97,87 %
10.12.2020 02:02 -0,8 C -1,1 C -2,3 C 97 % 1009,0 hPa 0,0 l/m 0 min 0 min 0 W/m 3,2 km/h (1 Bft) 95,74 %
10.12.2020 02:04 -0,8 C -1,1 C -2,3 C 97 % 1008,9 hPa 0,0 l/m 0 min 0 min 0 W/m 12,9 km/h (3 Bft) 97,83 %
10.12.2020 02:06 -0,8 C -1,1 C -1,7 C 97 % 1008,9 hPa 0,0 l/m 0 min 0 min 0 W/m 12,9 km/h (3 Bft) 97,87 %
10.12.2020 02:08 -0,7 C -1,1 C -2,3 C 97 % 1008,9 hPa 0,0 l/m 0 min 0 min 0 W/m 3,2 km/h (1 Bft) 97,87 %
10.12.2020 02:10 -0,8 C -1,1 C -2,3 C 97 % 1008,9 hPa 0,0 l/m 0 min 0 min 0 W/m 6,4 km/h (2 Bft) 95,74 %
10.12.2020 02:12 -0,7 C -1,1 C -2,3 C 97 % 1008,9 hPa 0,0 l/m 0 min 0 min 0 W/m 12,9 km/h (3 Bft) 95,74 %
10.12.2020 02:14 -0,7 C -1,1 C -2,3 C 97 % 1008,9 hPa 0,0 l/m 0 min 0 min 0 W/m 6,4 km/h (2 Bft) 97,83 %
10.12.2020 02:16 -0,7 C -1,1 C -2,3 C 97 % 1008,9 hPa 0,0 l/m 0 min 0 min 0 W/m 12,9 km/h (3 Bft) 95,74 %
10.12.2020 02:18 -0,7 C -1,1 C -2,3 C 97 % 1008,9 hPa 0,0 l/m 0 min 0 min 0 W/m 6,4 km/h (2 Bft) 97,87 %
10.12.2020 02:20 -0,7 C -1,1 C -2,3 C 97 % 1008,9 hPa 0,0 l/m 0 min 0 min 0 W/m 12,9 km/h (3 Bft) 97,87 %
10.12.2020 02:22 -0,8 C -1,1 C -2,3 C 97 % 1008,9 hPa 0,0 l/m 0 min 0 min 0 W/m 6,4 km/h (2 Bft) 93,62 %
10.12.2020 02:24 -0,8 C -1,1 C -2,3 C 97 % 1008,8 hPa 0,0 l/m 0 min 0 min 0 W/m 6,4 km/h (2 Bft) 97,87 %
10.12.2020 02:26 -0,8 C -1,1 C -2,3 C 97 % 1008,8 hPa 0,0 l/m 0 min 0 min 0 W/m 12,9 km/h (3 Bft) 97,87 %
10.12.2020 02:28 -0,8 C -1,7 C -2,3 C 97 % 1008,8 hPa 0,0 l/m 0 min 0 min 0 W/m 6,4 km/h (2 Bft) 95,65 %
10.12.2020 02:30 -0,8 C -1,7 C -2,3 C 97 % 1008,8 hPa 0,0 l/m 0 min 0 min 0 W/m 6,4 km/h (2 Bft) 100,00 %
10.12.2020 02:32 -0,9 C -1,7 C -2,3 C 97 % 1008,8 hPa 0,0 l/m 0 min 0 min 0 W/m 6,4 km/h (2 Bft) 100,00 %
10.12.2020 02:34 -0,9 C -1,7 C -2,3 C 97 % 1008,8 hPa 0,0 l/m 0 min 0 min 0 W/m 6,4 km/h (2 Bft) 100,00 %
10.12.2020 02:36 -0,9 C -1,7 C -2,3 C 97 % 1008,8 hPa 0,0 l/m 0 min 0 min 0 W/m 12,9 km/h (3 Bft) 100,00 %
10.12.2020 02:38 -0,9 C -1,7 C -2,3 C 97 % 1008,7 hPa 0,0 l/m 0 min 0 min 0 W/m 6,4 km/h (2 Bft) 100,00 %
10.12.2020 02:40 -0,9 C -1,7 C -2,3 C 97 % 1008,7 hPa 0,0 l/m 0 min 0 min 0 W/m 12,9 km/h (3 Bft) 100,00 %
10.12.2020 02:42 -0,9 C -1,7 C -2,3 C 97 % 1008,7 hPa 0,0 l/m 0 min 0 min 0 W/m 12,9 km/h (3 Bft) 100,00 %
10.12.2020 02:44 -0,9 C -1,7 C -2,3 C 97 % 1008,7 hPa 0,0 l/m 0 min 0 min 0 W/m 12,9 km/h (3 Bft) 100,00 %
10.12.2020 02:46 -0,9 C -1,7 C -2,3 C 97 % 1008,7 hPa 0,0 l/m 0 min 0 min 0 W/m 6,4 km/h (2 Bft) 100,00 %
10.12.2020 02:48 -0,9 C -1,7 C -2,3 C 97 % 1008,7 hPa 0,0 l/m 0 min 0 min 0 W/m 6,4 km/h (2 Bft) 100,00 %
10.12.2020 02:50 -0,9 C -1,1 C -2,3 C 97 % 1008,7 hPa 0,0 l/m 0 min 0 min 0 W/m 6,4 km/h (2 Bft) 100,00 %
10.12.2020 02:52 -0,9 C -1,1 C -2,3 C 97 % 1008,7 hPa 0,0 l/m 0 min 0 min 0 W/m 12,9 km/h (3 Bft) 100,00 %
10.12.2020 02:54 -0,9 C -1,1 C -2,3 C 97 % 1008,7 hPa 0,0 l/m 0 min 0 min 0 W/m 0,0 km/h (0 Bft) 100,00 %
10.12.2020 02:56 -0,9 C -1,1 C -2,3 C 97 % 1008,7 hPa 0,0 l/m 0 min 0 min 0 W/m 12,9 km/h (3 Bft) 100,00 %
10.12.2020 02:58 -0,9 C -1,1 C -2,3 C 97 % 1008,7 hPa 0,0 l/m 0 min 0 min 0 W/m 12,9 km/h (3 Bft) 100,00 %
10.12.2020 03:00 -0,9 C -1,1 C -2,3 C 97 % 1008,7 hPa 0,0 l/m 0 min 0 min 0 W/m 6,4 km/h (2 Bft) 97,87 %
10.12.2020 03:02 -0,9 C -1,1 C -2,3 C 97 % 1008,7 hPa 0,0 l/m 0 min 0 min 0 W/m 6,4 km/h (2 Bft) 100,00 %
10.12.2020 03:04 -0,8 C -1,1 C -2,3 C 97 % 1008,6 hPa 0,0 l/m 0 min 0 min 0 W/m 6,4 km/h (2 Bft) 95,74 %
10.12.2020 03:06 -0,8 C -1,1 C -2,3 C 97 % 1008,6 hPa 0,0 l/m 0 min 0 min 0 W/m 6,4 km/h (2 Bft) 100,00 %
10.12.2020 03:08 -0,8 C -1,1 C -2,3 C 97 % 1008,6 hPa 0,0 l/m 0 min 0 min 0 W/m 12,9 km/h (3 Bft) 100,00 %
10.12.2020 03:10 -0,9 C -1,1 C -2,3 C 97 % 1008,6 hPa 0,0 l/m 0 min 0 min 0 W/m 6,4 km/h (2 Bft) 100,00 %
10.12.2020 03:12 -0,9 C -1,7 C -2,3 C 97 % 1008,6 hPa 0,0 l/m 0 min 0 min 0 W/m 6,4 km/h (2 Bft) 100,00 %
10.12.2020 03:14 -0,9 C -1,7 C -2,3 C 97 % 1008,6 hPa 0,0 l/m 0 min 0 min 0 W/m 16,1 km/h (3 Bft) 100,00 %
10.12.2020 03:16 -0,9 C -1,7 C -2,3 C 97 % 1008,6 hPa 0,0 l/m 0 min 0 min 0 W/m 3,2 km/h (1 Bft) 97,87 %
10.12.2020 03:18 -0,9 C -1,7 C -2,3 C 97 % 1008,6 hPa 0,0 l/m 0 min 0 min 0 W/m 6,4 km/h (2 Bft) 100,00 %
10.12.2020 03:20 -0,9 C -1,7 C -2,3 C 97 % 1008,5 hPa 0,0 l/m 0 min 0 min 0 W/m 12,9 km/h (3 Bft) 100,00 %
10.12.2020 03:22 -0,9 C -1,7 C -2,3 C 97 % 1008,5 hPa 0,0 l/m 0 min 0 min 0 W/m 3,2 km/h (1 Bft) 100,00 %
10.12.2020 03:24 -0,9 C -1,7 C -2,3 C 97 % 1008,5 hPa 0,0 l/m 0 min 0 min 0 W/m 12,9 km/h (3 Bft) 100,00 %
10.12.2020 03:26 -0,9 C -1,7 C -2,3 C 97 % 1008,4 hPa 0,0 l/m 0 min 0 min 0 W/m 6,4 km/h (2 Bft) 97,83 %
10.12.2020 03:28 -0,9 C -1,7 C -2,3 C 97 % 1008,4 hPa 0,0 l/m 0 min 0 min 0 W/m 3,2 km/h (1 Bft) 100,00 %
10.12.2020 03:30 -0,9 C -1,7 C -2,3 C 97 % 1008,4 hPa 0,0 l/m 0 min 0 min 0 W/m 12,9 km/h (3 Bft) 100,00 %
10.12.2020 03:32 -0,9 C -1,7 C -2,3 C 97 % 1008,3 hPa 0,0 l/m 0 min 0 min 0 W/m 3,2 km/h (1 Bft) 100,00 %
10.12.2020 03:34 -0,9 C -1,7 C -2,3 C 97 % 1008,4 hPa 0,0 l/m 0 min 0 min 0 W/m 12,9 km/h (3 Bft) 97,87 %
10.12.2020 03:36 -1,0 C -1,7 C -2,3 C 97 % 1008,3 hPa 0,0 l/m 0 min 0 min 0 W/m 12,9 km/h (3 Bft) 97,83 %
10.12.2020 03:38 -1,0 C -1,7 C -2,3 C 97 % 1008,3 hPa 0,0 l/m 0 min 0 min 0 W/m 6,4 km/h (2 Bft) 97,92 %
10.12.2020 03:40 -1,0 C -1,7 C -2,3 C 97 % 1008,3 hPa 0,0 l/m 0 min 0 min 0 W/m 6,4 km/h (2 Bft) 97,87 %
10.12.2020 03:42 -1,0 C -1,7 C -2,3 C 97 % 1008,3 hPa 0,0 l/m 0 min 0 min 0 W/m 6,4 km/h (2 Bft) 97,83 %
10.12.2020 03:44 -1,0 C -1,7 C -2,3 C 97 % 1008,3 hPa 0,0 l/m 0 min 0 min 0 W/m 6,4 km/h (2 Bft) 97,87 %
10.12.2020 03:46 -1,0 C -1,7 C -2,3 C 97 % 1008,3 hPa 0,0 l/m 0 min 0 min 0 W/m 12,9 km/h (3 Bft) 97,87 %
10.12.2020 03:48 -1,0 C -1,7 C -2,3 C 97 % 1008,2 hPa 0,0 l/m 0 min 0 min 0 W/m 6,4 km/h (2 Bft) 95,74 %
10.12.2020 03:50 -1,0 C -1,7 C -2,3 C 97 % 1008,2 hPa 0,0 l/m 0 min 0 min 0 W/m 6,4 km/h (2 Bft) 97,87 %
10.12.2020 03:52 -1,0 C -1,7 C -2,3 C 97 % 1008,2 hPa 0,0 l/m 0 min 0 min 0 W/m 6,4 km/h (2 Bft) 97,87 %
10.12.2020 03:54 -1,0 C -1,7 C -2,3 C 97 % 1008,2 hPa 0,0 l/m 0 min 0 min 0 W/m 3,2 km/h (1 Bft) 95,65 %
10.12.2020 03:56 -1,0 C -1,7 C -2,3 C 97 % 1008,2 hPa 0,0 l/m 0 min 0 min 0 W/m 12,9 km/h (3 Bft) 97,87 %
10.12.2020 03:58 -1,0 C -1,7 C -2,3 C 97 % 1008,1 hPa 0,0 l/m 0 min 0 min 0 W/m 6,4 km/h (2 Bft) 97,62 %
10.12.2020 04:00 -1,0 C -1,7 C -2,3 C 97 % 1008,1 hPa 0,0 l/m 0 min 0 min 0 W/m 3,2 km/h (1 Bft) 95,83 %
10.12.2020 04:02 -1,0 C -1,7 C -2,3 C 97 % 1008,0 hPa 0,0 l/m 0 min 0 min 0 W/m 6,4 km/h (2 Bft) 95,83 %
10.12.2020 04:04 -1,0 C -1,7 C -2,3 C 97 % 1008,1 hPa 0,0 l/m 0 min 0 min 0 W/m 0,0 km/h (0 Bft) 97,96 %
10.12.2020 04:06 -1,0 C -1,7 C -2,3 C 97 % 1008,1 hPa 0,0 l/m 0 min 0 min 0 W/m 6,4 km/h (2 Bft) 97,83 %
10.12.2020 04:08 -1,0 C -1,7 C -2,3 C 97 % 1008,0 hPa 0,0 l/m 0 min 0 min 0 W/m 6,4 km/h (2 Bft) 97,87 %
10.12.2020 04:10 -1,0 C -1,7 C -2,3 C 97 % 1008,0 hPa 0,0 l/m 0 min 0 min 0 W/m 12,9 km/h (3 Bft) 97,87 %
10.12.2020 04:12 -1,0 C -1,7 C -2,3 C 97 % 1008,1 hPa 0,0 l/m 0 min 0 min 0 W/m 6,4 km/h (2 Bft) 97,67 %
10.12.2020 04:14 -1,0 C -1,7 C -2,3 C 97 % 1008,1 hPa 0,0 l/m 0 min 0 min 0 W/m 6,4 km/h (2 Bft) 98,00 %
10.12.2020 04:16 -1,0 C -1,7 C -2,3 C 97 % 1008,1 hPa 0,0 l/m 0 min 0 min 0 W/m 12,9 km/h (3 Bft) 97,92 %
10.12.2020 04:18 -1,0 C -1,7 C -2,3 C 97 % 1008,0 hPa 0,0 l/m 0 min 0 min 0 W/m 3,2 km/h (1 Bft) 97,83 %
10.12.2020 04:20 -1,0 C -1,7 C -2,3 C 97 % 1008,0 hPa 0,0 l/m 0 min 0 min 0 W/m 16,1 km/h (3 Bft) 95,45 %
10.12.2020 04:22 -1,0 C -1,7 C -2,3 C 97 % 1008,0 hPa 0,0 l/m 0 min 0 min 0 W/m 6,4 km/h (2 Bft) 100,00 %
10.12.2020 04:24 -1,0 C -1,7 C -2,3 C 97 % 1008,0 hPa 0,0 l/m 0 min 0 min 0 W/m 6,4 km/h (2 Bft) 100,00 %
10.12.2020 04:26 -1,1 C -1,7 C -2,3 C 97 % 1008,0 hPa 0,0 l/m 0 min 0 min 0 W/m 3,2 km/h (1 Bft) 97,87 %
10.12.2020 04:28 -1,1 C -1,7 C -2,3 C 97 % 1008,0 hPa 0,0 l/m 0 min 0 min 0 W/m 6,4 km/h (2 Bft) 100,00 %
10.12.2020 04:30 -1,1 C -1,7 C -2,3 C 97 % 1007,9 hPa 0,0 l/m 0 min 0 min 0 W/m 6,4 km/h (2 Bft) 100,00 %
10.12.2020 04:32 -1,1 C -1,7 C -2,3 C 97 % 1007,9 hPa 0,0 l/m 0 min 0 min 0 W/m 12,9 km/h (3 Bft) 100,00 %
10.12.2020 04:34 -1,1 C -1,7 C -2,3 C 97 % 1007,9 hPa 0,0 l/m 0 min 0 min 0 W/m 6,4 km/h (2 Bft) 100,00 %
10.12.2020 04:36 -1,1 C -1,7 C -2,3 C 97 % 1007,8 hPa 0,0 l/m 0 min 0 min 0 W/m 6,4 km/h (2 Bft) 97,87 %
10.12.2020 04:38 -1,1 C -1,7 C -2,3 C 97 % 1007,8 hPa 0,0 l/m 0 min 0 min 0 W/m 3,2 km/h (1 Bft) 97,87 %
10.12.2020 04:40 -1,1 C -1,7 C -2,3 C 97 % 1007,8 hPa 0,0 l/m 0 min 0 min 0 W/m 3,2 km/h (1 Bft) 97,87 %
10.12.2020 04:42 -1,1 C -1,7 C -2,3 C 97 % 1007,9 hPa 0,0 l/m 0 min 0 min 0 W/m 6,4 km/h (2 Bft) 97,73 %
10.12.2020 04:44 -1,1 C -1,7 C -2,3 C 97 % 1007,8 hPa 0,0 l/m 0 min 0 min 0 W/m 6,4 km/h (2 Bft) 97,87 %
10.12.2020 04:46 -1,1 C -1,7 C -2,3 C 97 % 1007,7 hPa 0,0 l/m 0 min 0 min 0 W/m 6,4 km/h (2 Bft) 97,96 %
10.12.2020 04:48 -1,1 C -1,7 C -2,3 C 97 % 1007,8 hPa 0,0 l/m 0 min 0 min 0 W/m 6,4 km/h (2 Bft) 50,00 %
10.12.2020 04:50 -1,1 C -1,7 C -2,3 C 97 % 1007,8 hPa 0,0 l/m 0 min 0 min 0 W/m 6,4 km/h (2 Bft) 97,73 %
10.12.2020 04:52 -1,1 C -1,7 C -2,3 C 97 % 1007,7 hPa 0,0 l/m 0 min 0 min 0 W/m 12,9 km/h (3 Bft) 95,74 %
10.12.2020 04:54 -1,1 C -1,7 C -2,3 C 97 % 1007,7 hPa 0,0 l/m 0 min 0 min 0 W/m 6,4 km/h (2 Bft) 97,83 %
10.12.2020 04:56 -1,1 C -1,7 C -2,3 C 97 % 1007,8 hPa 0,0 l/m 0 min 0 min 0 W/m 6,4 km/h (2 Bft) 97,73 %
10.12.2020 04:58 -1,1 C -1,7 C -2,3 C 97 % 1007,8 hPa 0,0 l/m 0 min 0 min 0 W/m 12,9 km/h (3 Bft) 97,83 %
10.12.2020 05:00 -1,1 C -1,7 C -2,3 C 97 % 1007,7 hPa 0,0 l/m 0 min 0 min 0 W/m 12,9 km/h (3 Bft) 98,00 %
10.12.2020 05:02 -1,1 C -1,7 C -2,3 C 97 % 1007,7 hPa 0,0 l/m 0 min 0 min 0 W/m 6,4 km/h (2 Bft) 97,87 %
10.12.2020 05:04 -1,1 C -1,7 C -2,3 C 97 % 1007,7 hPa 0,0 l/m 0 min 0 min 0 W/m 3,2 km/h (1 Bft) 95,74 %
10.12.2020 05:06 -1,1 C -1,7 C -2,3 C 97 % 1007,7 hPa 0,0 l/m 0 min 0 min 0 W/m 6,4 km/h (2 Bft) 97,87 %
10.12.2020 05:08 -1,1 C -1,7 C -2,3 C 97 % 1007,6 hPa 0,0 l/m 0 min 0 min 0 W/m 6,4 km/h (2 Bft) 95,74 %
10.12.2020 05:10 -1,1 C -1,7 C -2,3 C 97 % 1007,6 hPa 0,0 l/m 0 min 0 min 0 W/m 0,0 km/h (0 Bft) 97,83 %
10.12.2020 05:12 -1,1 C -1,7 C -2,3 C 97 % 1007,6 hPa 0,0 l/m 0 min 0 min 0 W/m 3,2 km/h (1 Bft) 97,87 %
10.12.2020 05:14 -1,1 C -1,7 C -2,3 C 97 % 1007,5 hPa 0,0 l/m 0 min 0 min 0 W/m 3,2 km/h (1 Bft) 97,87 %
10.12.2020 05:16 -1,1 C -1,7 C -2,3 C 97 % 1007,5 hPa 0,0 l/m 0 min 0 min 0 W/m 3,2 km/h (1 Bft) 95,74 %
10.12.2020 05:18 -1,1 C -1,7 C -2,3 C 97 % 1007,5 hPa 0,0 l/m 0 min 0 min 0 W/m 6,4 km/h (2 Bft) 97,87 %
10.12.2020 05:20 -1,1 C -1,7 C -2,3 C 97 % 1007,5 hPa 0,0 l/m 0 min 0 min 0 W/m 6,4 km/h (2 Bft) 97,83 %
10.12.2020 05:22 -1,1 C -1,7 C -2,3 C 97 % 1007,5 hPa 0,0 l/m 0 min 0 min 0 W/m 6,4 km/h (2 Bft) 93,62 %
10.12.2020 05:24 -1,1 C -1,7 C -2,3 C 97 % 1007,5 hPa 0,0 l/m 0 min 0 min 0 W/m 3,2 km/h (1 Bft) 95,74 %
10.12.2020 05:26 -1,2 C -1,7 C -2,3 C 97 % 1007,5 hPa 0,0 l/m 0 min 0 min 0 W/m 3,2 km/h (1 Bft) 97,87 %
10.12.2020 05:28 -1,1 C -1,7 C -2,3 C 97 % 1007,5 hPa 0,0 l/m 0 min 0 min 0 W/m 3,2 km/h (1 Bft) 100,00 %
10.12.2020 05:30 -1,1 C -1,7 C -2,3 C 97 % 1007,5 hPa 0,0 l/m 0 min 0 min 0 W/m 6,4 km/h (2 Bft) 100,00 %
10.12.2020 05:32 -1,2 C -1,7 C -2,3 C 97 % 1007,5 hPa 0,0 l/m 0 min 0 min 0 W/m 3,2 km/h (1 Bft) 100,00 %
10.12.2020 05:34 -1,2 C -1,7 C -2,3 C 97 % 1007,5 hPa 0,0 l/m 0 min 0 min 0 W/m 6,4 km/h (2 Bft) 100,00 %
10.12.2020 05:36 -1,2 C -1,7 C -2,3 C 97 % 1007,5 hPa 0,0 l/m 0 min 0 min 0 W/m 3,2 km/h (1 Bft) 100,00 %
10.12.2020 05:38 -1,1 C -1,7 C -2,3 C 97 % 1007,5 hPa 0,0 l/m 0 min 0 min 0 W/m 3,2 km/h (1 Bft) 100,00 %
10.12.2020 05:40 -1,1 C -1,7 C -2,3 C 97 % 1007,5 hPa 0,0 l/m 0 min 0 min 0 W/m 0,0 km/h (0 Bft) 95,74 %
10.12.2020 05:42 -1,2 C -1,7 C -2,3 C 97 % 1007,5 hPa 0,0 l/m 0 min 0 min 0 W/m 3,2 km/h (1 Bft) 100,00 %
10.12.2020 05:44 -1,1 C -1,7 C -2,3 C 97 % 1007,5 hPa 0,0 l/m 0 min 0 min 0 W/m 6,4 km/h (2 Bft) 100,00 %
10.12.2020 05:46 -1,1 C -1,7 C -2,3 C 97 % 1007,5 hPa 0,0 l/m 0 min 0 min 0 W/m 3,2 km/h (1 Bft) 100,00 %
10.12.2020 05:48 -1,1 C -1,7 C -2,3 C 97 % 1007,5 hPa 0,0 l/m 0 min 0 min 0 W/m 3,2 km/h (1 Bft) 100,00 %
10.12.2020 05:50 -1,1 C -1,7 C -2,3 C 97 % 1007,5 hPa 0,0 l/m 0 min 0 min 0 W/m 3,2 km/h (1 Bft) 100,00 %
10.12.2020 05:52 -1,1 C -1,7 C -2,3 C 97 % 1007,5 hPa 0,0 l/m 0 min 0 min 0 W/m 0,0 km/h (0 Bft) 98,00 %
10.12.2020 05:54 -1,1 C -1,7 C -2,3 C 97 % 1007,5 hPa 0,0 l/m 0 min 0 min 0 W/m 6,4 km/h (2 Bft) 95,74 %
10.12.2020 05:56 -1,1 C -1,7 C -2,3 C 97 % 1007,5 hPa 0,0 l/m 0 min 0 min 0 W/m 6,4 km/h (2 Bft) 100,00 %
10.12.2020 05:58 -1,1 C -1,7 C -2,3 C 97 % 1007,5 hPa 0,0 l/m 0 min 0 min 0 W/m 0,0 km/h (0 Bft) 100,00 %
10.12.2020 06:00 -1,1 C -1,7 C -2,3 C 97 % 1007,5 hPa 0,0 l/m 0 min 0 min 0 W/m 0,0 km/h (0 Bft) 100,00 %
10.12.2020 06:02 -1,1 C -1,7 C -2,3 C 97 % 1007,5 hPa 0,0 l/m 0 min 0 min 0 W/m 0,0 km/h (0 Bft) 91,49 %
10.12.2020 06:04 -1,1 C -1,7 C -2,3 C 97 % 1007,5 hPa 0,0 l/m 0 min 0 min 0 W/m 0,0 km/h (0 Bft) 100,00 %
10.12.2020 06:08 -1,1 C -1,7 C -2,3 C 97 % 1007,5 hPa 0,0 l/m 0 min 0 min 0 W/m 12,9 km/h (3 Bft) 98,90 %
10.12.2020 06:10 -1,1 C -1,7 C -2,3 C 97 % 1007,5 hPa 0,0 l/m 0 min 0 min 0 W/m 0,0 km/h (0 Bft) 98,00 %
10.12.2020 06:12 -1,1 C -1,7 C -2,3 C 97 % 1007,5 hPa 0,0 l/m 0 min 0 min 0 W/m 0,0 km/h (0 Bft) 97,87 %
10.12.2020 06:14 -1,1 C -1,7 C -2,3 C 97 % 1007,6 hPa 0,0 l/m 0 min 0 min 0 W/m 3,2 km/h (1 Bft) 97,56 %
10.12.2020 06:16 -1,1 C -1,7 C -2,3 C 97 % 1007,6 hPa 0,0 l/m 0 min 0 min 0 W/m 3,2 km/h (1 Bft) 97,96 %
10.12.2020 06:18 -1,2 C -1,7 C -2,3 C 97 % 1007,6 hPa 0,0 l/m 0 min 0 min 0 W/m 3,2 km/h (1 Bft) 96,00 %
10.12.2020 06:20 -1,2 C -1,7 C -2,3 C 97 % 1007,5 hPa 0,0 l/m 0 min 0 min 0 W/m 3,2 km/h (1 Bft) 97,87 %
10.12.2020 06:22 -1,2 C -1,7 C -2,3 C 97 % 1007,6 hPa 0,0 l/m 0 min 0 min 0 W/m 3,2 km/h (1 Bft) 95,74 %
10.12.2020 06:24 -1,2 C -1,7 C -2,3 C 97 % 1007,6 hPa 0,0 l/m 0 min 0 min 0 W/m 6,4 km/h (2 Bft) 97,67 %
10.12.2020 06:26 -1,2 C -1,7 C -2,3 C 97 % 1007,6 hPa 0,0 l/m 0 min 0 min 0 W/m 3,2 km/h (1 Bft) 98,00 %
10.12.2020 06:28 -1,2 C -1,7 C -2,3 C 97 % 1007,6 hPa 0,0 l/m 0 min 0 min 0 W/m 0,0 km/h (0 Bft) 97,87 %
10.12.2020 06:30 -1,2 C -1,7 C -2,3 C 97 % 1007,6 hPa 0,0 l/m 0 min 0 min 0 W/m 0,0 km/h (0 Bft) 97,87 %
10.12.2020 06:32 -1,2 C -1,7 C -2,3 C 97 % 1007,6 hPa 0,0 l/m 0 min 0 min 0 W/m 3,2 km/h (1 Bft) 95,35 %
10.12.2020 06:34 -1,2 C -1,7 C -2,3 C 97 % 1007,6 hPa 0,0 l/m 0 min 0 min 0 W/m 6,4 km/h (2 Bft) 98,00 %
10.12.2020 06:36 -1,2 C -1,7 C -2,3 C 97 % 1007,6 hPa 0,0 l/m 0 min 0 min 0 W/m 0,0 km/h (0 Bft) 97,92 %
10.12.2020 06:38 -1,2 C -1,7 C -2,3 C 97 % 1007,5 hPa 0,0 l/m 0 min 0 min 0 W/m 0,0 km/h (0 Bft) 96,23 %
10.12.2020 06:40 -1,2 C -1,7 C -2,3 C 97 % 1007,6 hPa 0,0 l/m 0 min 0 min 0 W/m 0,0 km/h (0 Bft) 97,14 %
10.12.2020 06:42 -1,2 C -1,7 C -2,3 C 97 % 1007,6 hPa 0,0 l/m 0 min 0 min 0 W/m 0,0 km/h (0 Bft) 97,92 %
10.12.2020 06:44 -1,2 C -1,7 C -2,3 C 97 % 1007,5 hPa 0,0 l/m 0 min 0 min 0 W/m 0,0 km/h (0 Bft) 96,00 %
10.12.2020 06:46 -1,2 C -1,7 C -2,3 C 97 % 1007,5 hPa 0,0 l/m 0 min 0 min 0 W/m 3,2 km/h (1 Bft) 97,87 %
10.12.2020 06:48 -1,2 C -1,7 C -2,3 C 97 % 1007,5 hPa 0,0 l/m 0 min 0 min 0 W/m 0,0 km/h (0 Bft) 95,74 %
10.12.2020 06:50 -1,2 C -1,7 C -2,3 C 97 % 1007,5 hPa 0,0 l/m 0 min 0 min 0 W/m 3,2 km/h (1 Bft) 97,87 %
10.12.2020 06:52 -1,2 C -1,7 C -2,3 C 97 % 1007,5 hPa 0,0 l/m 0 min 0 min 0 W/m 6,4 km/h (2 Bft) 100,00 %
10.12.2020 06:54 -1,2 C -1,7 C -2,8 C 97 % 1007,5 hPa 0,0 l/m 0 min 0 min 0 W/m 0,0 km/h (0 Bft) 100,00 %
10.12.2020 06:56 -1,3 C -1,7 C -2,8 C 97 % 1007,5 hPa 0,0 l/m 0 min 0 min 0 W/m 6,4 km/h (2 Bft) 100,00 %
10.12.2020 06:58 -1,2 C -1,7 C -2,3 C 97 % 1007,5 hPa 0,0 l/m 0 min 0 min 0 W/m 6,4 km/h (2 Bft) 100,00 %
10.12.2020 07:00 -1,3 C -1,7 C -2,3 C 97 % 1007,5 hPa 0,0 l/m 0 min 0 min 0 W/m 0,0 km/h (0 Bft) 100,00 %
10.12.2020 07:02 -1,3 C -1,7 C -2,8 C 97 % 1007,5 hPa 0,0 l/m 0 min 0 min 0 W/m 6,4 km/h (2 Bft) 97,87 %
10.12.2020 07:04 -1,3 C -1,7 C -2,8 C 97 % 1007,6 hPa 0,0 l/m 0 min 0 min 0 W/m 3,2 km/h (1 Bft) 100,00 %
10.12.2020 07:06 -1,3 C -1,7 C -2,8 C 97 % 1007,6 hPa 0,0 l/m 0 min 0 min 0 W/m 6,4 km/h (2 Bft) 97,67 %
10.12.2020 07:08 -1,3 C -1,7 C -2,3 C 97 % 1007,6 hPa 0,0 l/m 0 min 0 min 0 W/m 0,0 km/h (0 Bft) 98,00 %
10.12.2020 07:10 -1,3 C -1,7 C -2,8 C 97 % 1007,6 hPa 0,0 l/m 0 min 0 min 0 W/m 3,2 km/h (1 Bft) 100,00 %
10.12.2020 07:12 -1,3 C -1,7 C -2,8 C 97 % 1007,5 hPa 0,0 l/m 0 min 0 min 0 W/m 0,0 km/h (0 Bft) 97,87 %
10.12.2020 07:14 -1,3 C -1,7 C -2,8 C 97 % 1007,5 hPa 0,0 l/m 0 min 0 min 0 W/m 0,0 km/h (0 Bft) 100,00 %
10.12.2020 07:16 -1,3 C -1,7 C -2,8 C 97 % 1007,5 hPa 0,0 l/m 0 min 0 min 0 W/m 0,0 km/h (0 Bft) 100,00 %
10.12.2020 07:18 -1,3 C -1,7 C -2,8 C 97 % 1007,5 hPa 0,0 l/m 0 min 0 min 0 W/m 0,0 km/h (0 Bft) 100,00 %
10.12.2020 07:20 -1,3 C -1,7 C -2,8 C 97 % 1007,5 hPa 0,0 l/m 0 min 0 min 0 W/m 0,0 km/h (0 Bft) 100,00 %
10.12.2020 07:22 -1,3 C -1,7 C -2,8 C 97 % 1007,6 hPa 0,0 l/m 0 min 0 min 0 W/m 6,4 km/h (2 Bft) 100,00 %
10.12.2020 07:24 -1,3 C -1,7 C -2,3 C 97 % 1007,5 hPa 0,0 l/m 0 min 0 min 0 W/m 3,2 km/h (1 Bft) 100,00 %
10.12.2020 07:26 -1,3 C -1,7 C -2,3 C 97 % 1007,5 hPa 0,0 l/m 0 min 0 min 0 W/m 3,2 km/h (1 Bft) 97,87 %
10.12.2020 07:28 -1,3 C -1,7 C -2,3 C 97 % 1007,5 hPa 0,0 l/m 0 min 0 min 0 W/m 3,2 km/h (1 Bft) 97,87 %
10.12.2020 07:30 -1,3 C -1,7 C -2,3 C 97 % 1007,6 hPa 0,0 l/m 0 min 0 min 0 W/m 0,0 km/h (0 Bft) 97,83 %
10.12.2020 07:32 -1,4 C -1,7 C -2,3 C 97 % 1007,5 hPa 0,0 l/m 0 min 0 min 0 W/m 0,0 km/h (0 Bft) 97,87 %
10.12.2020 07:34 -1,4 C -1,7 C -2,3 C 97 % 1007,5 hPa 0,0 l/m 0 min 0 min 0 W/m 3,2 km/h (1 Bft) 97,87 %
10.12.2020 07:38 -1,4 C -1,7 C -2,3 C 97 % 1007,4 hPa 0,0 l/m 0 min 0 min 0 W/m 0,0 km/h (0 Bft) 98,94 %
10.12.2020 07:41 -1,4 C -1,7 C -2,3 C 97 % 1007,4 hPa 0,0 l/m 0 min 0 min 0 W/m 3,2 km/h (1 Bft) 95,59 %
10.12.2020 07:42 -1,4 C -1,7 C -2,3 C 97 % 1007,4 hPa 0,0 l/m 0 min 0 min 0 W/m 3,2 km/h (1 Bft) 95,59 %
10.12.2020 07:46 -1,4 C -1,7 C -2,3 C 97 % 1007,3 hPa 0,0 l/m 0 min 0 min 0 W/m 0,0 km/h (0 Bft) 96,58 %
10.12.2020 07:50 -1,4 C -2,2 C -2,3 C 97 % 1007,4 hPa 0,0 l/m 0 min 0 min 0 W/m 0,0 km/h (0 Bft) 92,31 %
10.12.2020 07:54 -1,4 C -2,2 C -2,8 C 97 % 1007,5 hPa 0,0 l/m 0 min 0 min 0 W/m 0,0 km/h (0 Bft) 96,63 %
10.12.2020 07:57 -1,4 C -2,2 C -2,8 C 97 % 1007,6 hPa 0,0 l/m 0 min 0 min 0 W/m 0,0 km/h (0 Bft) 96,63 %
10.12.2020 07:58 -1,4 C -2,2 C -2,8 C 97 % 1007,6 hPa 0,0 l/m 0 min 0 min 0 W/m 0,0 km/h (0 Bft) 97,83 %
10.12.2020 08:02 -1,5 C -2,2 C -2,8 C 97 % 1007,6 hPa 0,0 l/m 0 min 0 min 0 W/m 0,0 km/h (0 Bft) 95,96 %
10.12.2020 08:06 -1,5 C -2,2 C -2,8 C 97 % 1007,7 hPa 0,0 l/m 0 min 0 min 0 W/m 0,0 km/h (0 Bft) 96,59 %
10.12.2020 08:10 -1,5 C -2,2 C -2,8 C 97 % 1007,8 hPa 0,0 l/m 0 min 0 min 0 W/m 0,0 km/h (0 Bft) 97,78 %
10.12.2020 08:14 -1,5 C -1,7 C -2,8 C 97 % 1007,8 hPa 0,0 l/m 0 min 0 min 0 W/m 0,0 km/h (0 Bft) 96,04 %
10.12.2020 08:17 -1,5 C -1,7 C -2,8 C 97 % 1007,8 hPa 0,0 l/m 0 min 0 min 0 W/m 0,0 km/h (0 Bft) 96,04 %
10.12.2020 08:18 -1,5 C -2,2 C -2,8 C 97 % 1007,8 hPa 0,0 l/m 0 min 0 min 0 W/m 0,0 km/h (0 Bft) 98,90 %
10.12.2020 09:35 -0,7 C 0,6 C -1,7 C 97 % 1007,9 hPa 0,0 l/m 0 min 0 min 18 W/m 0,0 km/h (0 Bft) 100,00 %
10.12.2020 09:40 -0,2 C 1,7 C -1,7 C 97 % 1007,8 hPa 0,0 l/m 0 min 0 min 19 W/m 0,0 km/h (0 Bft) 100,00 %
10.12.2020 09:45 0,2 C 1,7 C -1,7 C 98 % 1007,8 hPa 0,0 l/m 0 min 0 min 20 W/m 3,2 km/h (1 Bft) 100,00 %
10.12.2020 09:50 0,5 C 0,6 C -1,7 C 98 % 1007,7 hPa 0,0 l/m 0 min 0 min 21 W/m 0,0 km/h (0 Bft) 100,00 %
10.12.2020 09:55 0,5 C 0,6 C -1,2 C 98 % 1007,7 hPa 0,0 l/m 0 min 0 min 22 W/m 0,0 km/h (0 Bft) 100,00 %
10.12.2020 10:02 0,6 C 0,6 C -0,6 C 98 % 1007,8 hPa 0,0 l/m 0 min 0 min 21 W/m 0,0 km/h (0 Bft) 98,20 %
10.12.2020 10:04 0,8 C 1,1 C -0,6 C 98 % 1007,8 hPa 0,0 l/m 0 min 0 min 25 W/m 0,0 km/h (0 Bft) 97,87 %
10.12.2020 10:06 0,8 C 0,6 C -0,6 C 98 % 1007,8 hPa 0,0 l/m 0 min 0 min 25 W/m 0,0 km/h (0 Bft) 97,83 %
10.12.2020 10:08 0,9 C 0,6 C -0,1 C 98 % 1007,8 hPa 0,0 l/m 0 min 0 min 25 W/m 0,0 km/h (0 Bft) 81,58 %
10.12.2020 10:10 0,8 C 0,6 C 1,1 C 98 % 1007,8 hPa 0,0 l/m 0 min 0 min 26 W/m 0,0 km/h (0 Bft) 68,18 %
10.12.2020 10:12 0,8 C 0,6 C -0,1 C 98 % 1007,9 hPa 0,0 l/m 0 min 0 min 26 W/m 0,0 km/h (0 Bft) 97,87 %
10.12.2020 10:14 0,7 C 0,6 C -0,6 C 98 % 1007,9 hPa 0,0 l/m 0 min 0 min 28 W/m 0,0 km/h (0 Bft) 97,87 %
10.12.2020 10:16 0,6 C 0,0 C -0,6 C 98 % 1007,9 hPa 0,0 l/m 0 min 0 min 28 W/m 0,0 km/h (0 Bft) 95,74 %
10.12.2020 10:18 0,6 C 0,6 C -0,1 C 97 % 1007,9 hPa 0,0 l/m 0 min 0 min 28 W/m 0,0 km/h (0 Bft) 91,30 %
10.12.2020 10:20 0,6 C 0,6 C -0,6 C 97 % 1008,0 hPa 0,0 l/m 0 min 0 min 28 W/m 6,4 km/h (2 Bft) 95,74 %
10.12.2020 10:22 0,5 C 0,6 C -0,6 C 97 % 1008,0 hPa 0,0 l/m 0 min 0 min 28 W/m 6,4 km/h (2 Bft) 95,74 %
10.12.2020 10:24 0,5 C 0,6 C -0,6 C 97 % 1007,9 hPa 0,0 l/m 0 min 0 min 28 W/m 3,2 km/h (1 Bft) 95,74 %
10.12.2020 10:26 0,5 C 0,0 C -0,6 C 97 % 1008,0 hPa 0,0 l/m 0 min 0 min 30 W/m 0,0 km/h (0 Bft) 95,74 %
10.12.2020 10:28 0,5 C 0,0 C -1,2 C 97 % 1008,0 hPa 0,0 l/m 0 min 0 min 30 W/m 0,0 km/h (0 Bft) 95,74 %
10.12.2020 10:30 0,5 C 0,0 C -1,2 C 97 % 1008,0 hPa 0,0 l/m 0 min 0 min 30 W/m 0,0 km/h (0 Bft) 95,65 %
10.12.2020 10:32 0,4 C 0,0 C -1,2 C 97 % 1008,0 hPa 0,0 l/m 0 min 0 min 30 W/m 0,0 km/h (0 Bft) 97,83 %
10.12.2020 10:34 0,4 C 0,0 C -0,6 C 97 % 1007,9 hPa 0,0 l/m 0 min 0 min 30 W/m 6,4 km/h (2 Bft) 95,74 %
10.12.2020 10:36 0,4 C 0,6 C -0,6 C 97 % 1007,9 hPa 0,0 l/m 0 min 0 min 32 W/m 3,2 km/h (1 Bft) 93,62 %
10.12.2020 10:38 0,4 C 0,6 C -0,6 C 97 % 1007,9 hPa 0,0 l/m 0 min 0 min 32 W/m 3,2 km/h (1 Bft) 95,74 %
10.12.2020 10:40 0,4 C 0,6 C -0,6 C 97 % 1007,9 hPa 0,0 l/m 0 min 0 min 32 W/m 3,2 km/h (1 Bft) 95,74 %
10.12.2020 10:44 0,4 C 0,6 C -0,6 C 97 % 1007,9 hPa 0,0 l/m 0 min 0 min 32 W/m 6,4 km/h (2 Bft) 96,12 %
10.12.2020 10:46 0,4 C 0,6 C -0,6 C 97 % 1007,9 hPa 0,0 l/m 0 min 0 min 33 W/m 6,4 km/h (2 Bft) 93,62 %
10.12.2020 10:48 0,4 C 0,6 C -0,6 C 97 % 1007,9 hPa 0,0 l/m 0 min 0 min 33 W/m 3,2 km/h (1 Bft) 93,62 %
10.12.2020 10:50 0,4 C 0,6 C -0,6 C 97 % 1007,9 hPa 0,0 l/m 0 min 0 min 33 W/m 3,2 km/h (1 Bft) 97,87 %
10.12.2020 10:52 0,5 C 0,6 C -0,6 C 97 % 1007,9 hPa 0,0 l/m 0 min 0 min 34 W/m 0,0 km/h (0 Bft) 95,65 %
10.12.2020 10:54 0,5 C 0,6 C -0,6 C 97 % 1007,9 hPa 0,0 l/m 0 min 0 min 35 W/m 6,4 km/h (2 Bft) 95,74 %
10.12.2020 10:56 0,5 C 1,1 C -0,6 C 97 % 1008,0 hPa 0,0 l/m 0 min 0 min 35 W/m 3,2 km/h (1 Bft) 91,49 %
10.12.2020 10:58 0,5 C 1,1 C -0,6 C 97 % 1007,9 hPa 0,0 l/m 0 min 0 min 34 W/m 0,0 km/h (0 Bft) 95,74 %
10.12.2020 11:00 0,5 C 1,1 C -0,6 C 97 % 1008,0 hPa 0,0 l/m 0 min 0 min 33 W/m 3,2 km/h (1 Bft) 97,87 %
10.12.2020 11:02 0,5 C 1,1 C -0,6 C 97 % 1007,9 hPa 0,0 l/m 0 min 0 min 37 W/m 6,4 km/h (2 Bft) 95,74 %
10.12.2020 11:04 0,5 C 1,1 C -0,6 C 97 % 1007,9 hPa 0,0 l/m 0 min 0 min 40 W/m 0,0 km/h (0 Bft) 97,83 %
10.12.2020 11:06 0,5 C 1,1 C -0,6 C 97 % 1007,9 hPa 0,0 l/m 0 min 0 min 43 W/m 6,4 km/h (2 Bft) 93,62 %
10.12.2020 11:08 0,5 C 1,1 C -0,6 C 97 % 1007,8 hPa 0,0 l/m 0 min 0 min 44 W/m 3,2 km/h (1 Bft) 97,92 %
10.12.2020 11:10 0,5 C 1,1 C -0,1 C 97 % 1007,8 hPa 0,0 l/m 0 min 0 min 50 W/m 3,2 km/h (1 Bft) 97,14 %
10.12.2020 11:12 0,6 C 1,1 C -0,1 C 97 % 1007,8 hPa 0,0 l/m 0 min 0 min 70 W/m 3,2 km/h (1 Bft) 93,62 %
10.12.2020 11:14 0,6 C 1,7 C -0,1 C 97 % 1007,8 hPa 0,0 l/m 0 min 0 min 66 W/m 3,2 km/h (1 Bft) 95,74 %
10.12.2020 11:16 0,6 C 1,7 C -0,1 C 97 % 1007,9 hPa 0,0 l/m 0 min 0 min 69 W/m 3,2 km/h (1 Bft) 95,74 %
10.12.2020 11:18 0,7 C 1,7 C -0,1 C 97 % 1007,8 hPa 0,0 l/m 0 min 0 min 74 W/m 6,4 km/h (2 Bft) 95,74 %
10.12.2020 11:20 0,8 C 1,7 C -0,1 C 97 % 1007,8 hPa 0,2 l/m 0 min 0 min 76 W/m 19,3 km/h (3 Bft) 93,62 %
10.12.2020 11:22 0,8 C 1,7 C -0,1 C 97 % 1007,8 hPa 0,0 l/m 0 min 0 min 81 W/m 6,4 km/h (2 Bft) 95,74 %
10.12.2020 11:24 0,9 C 1,7 C -0,1 C 97 % 1007,7 hPa 0,0 l/m 0 min 0 min 92 W/m 12,9 km/h (3 Bft) 95,74 %
10.12.2020 11:26 0,9 C 1,7 C -0,1 C 97 % 1007,7 hPa 0,0 l/m 0 min 0 min 99 W/m 6,4 km/h (2 Bft) 95,74 %
10.12.2020 11:28 0,9 C 1,7 C -0,1 C 96 % 1007,7 hPa 0,0 l/m 0 min 0 min 104 W/m 6,4 km/h (2 Bft) 95,65 %
10.12.2020 11:30 0,9 C 2,2 C 0,5 C 96 % 1007,7 hPa 0,0 l/m 0 min 0 min 102 W/m 3,2 km/h (1 Bft) 95,74 %
10.12.2020 11:32 0,9 C 2,2 C 0,5 C 96 % 1007,7 hPa 0,0 l/m 0 min 0 min 91 W/m 0,0 km/h (0 Bft) 95,74 %
10.12.2020 11:34 1,0 C 1,7 C 0,5 C 96 % 1007,7 hPa 0,0 l/m 0 min 0 min 81 W/m 3,2 km/h (1 Bft) 95,74 %
10.12.2020 11:36 1,0 C 1,7 C 0,5 C 96 % 1007,6 hPa 0,0 l/m 0 min 0 min 71 W/m 3,2 km/h (1 Bft) 95,74 %
10.12.2020 11:38 1,0 C 1,7 C 0,5 C 96 % 1007,6 hPa 0,0 l/m 0 min 0 min 66 W/m 3,2 km/h (1 Bft) 95,74 %
10.12.2020 11:40 1,0 C 1,7 C 0,5 C 96 % 1007,6 hPa 0,0 l/m 0 min 0 min 64 W/m 3,2 km/h (1 Bft) 95,65 %
10.12.2020 11:42 1,0 C 1,7 C 0,5 C 96 % 1007,6 hPa 0,0 l/m 0 min 0 min 63 W/m 0,0 km/h (0 Bft) 97,87 %
10.12.2020 11:44 1,0 C 1,1 C 0,5 C 96 % 1007,6 hPa 0,0 l/m 0 min 0 min 62 W/m 0,0 km/h (0 Bft) 93,62 %
10.12.2020 11:46 1,1 C 1,1 C -0,1 C 96 % 1007,6 hPa 0,0 l/m 0 min 0 min 61 W/m 0,0 km/h (0 Bft) 95,74 %
10.12.2020 11:48 1,1 C 1,7 C 0,5 C 96 % 1007,5 hPa 0,0 l/m 0 min 0 min 63 W/m 0,0 km/h (0 Bft) 97,87 %
10.12.2020 11:50 1,1 C 1,1 C 0,5 C 96 % 1007,6 hPa 0,0 l/m 0 min 0 min 61 W/m 0,0 km/h (0 Bft) 95,65 %
10.12.2020 11:52 1,1 C 1,1 C 0,5 C 96 % 1007,5 hPa 0,0 l/m 0 min 0 min 58 W/m 0,0 km/h (0 Bft) 93,62 %
10.12.2020 11:54 1,1 C 1,1 C 0,5 C 95 % 1007,6 hPa 0,0 l/m 0 min 0 min 58 W/m 0,0 km/h (0 Bft) 97,87 %
10.12.2020 11:56 1,1 C 1,1 C 0,5 C 95 % 1007,5 hPa 0,0 l/m 0 min 0 min 58 W/m 0,0 km/h (0 Bft) 95,74 %
10.12.2020 11:58 1,1 C 1,1 C 0,5 C 95 % 1007,5 hPa 0,0 l/m 0 min 0 min 58 W/m 0,0 km/h (0 Bft) 97,87 %
10.12.2020 12:00 1,1 C 1,1 C 0,5 C 95 % 1007,4 hPa 0,0 l/m 0 min 0 min 58 W/m 0,0 km/h (0 Bft) 97,87 %
10.12.2020 12:02 1,1 C 1,1 C 0,5 C 95 % 1007,5 hPa 0,0 l/m 0 min 0 min 58 W/m 0,0 km/h (0 Bft) 97,83 %
10.12.2020 12:04 1,1 C 1,1 C 0,5 C 95 % 1007,4 hPa 0,0 l/m 0 min 0 min 58 W/m 0,0 km/h (0 Bft) 97,87 %
10.12.2020 12:08 1,1 C 1,1 C 0,5 C 95 % 1007,5 hPa 0,0 l/m 0 min 0 min 57 W/m 0,0 km/h (0 Bft) 97,87 %
10.12.2020 12:10 1,1 C 1,1 C 0,5 C 95 % 1007,4 hPa 0,0 l/m 0 min 0 min 56 W/m 0,0 km/h (0 Bft) 95,74 %
10.12.2020 12:12 1,1 C 1,1 C 0,5 C 95 % 1007,4 hPa 0,0 l/m 0 min 0 min 56 W/m 0,0 km/h (0 Bft) 95,74 %
10.12.2020 12:14 1,1 C 1,1 C 0,5 C 95 % 1007,3 hPa 0,0 l/m 0 min 0 min 57 W/m 0,0 km/h (0 Bft) 97,83 %
10.12.2020 12:16 1,1 C 1,1 C 0,5 C 95 % 1007,3 hPa 0,0 l/m 0 min 0 min 60 W/m 0,0 km/h (0 Bft) 95,74 %
10.12.2020 12:18 1,1 C 1,1 C 0,5 C 95 % 1007,4 hPa 0,0 l/m 0 min 0 min 63 W/m 12,9 km/h (3 Bft) 100,00 %
10.12.2020 12:20 1,2 C 1,1 C 0,5 C 95 % 1007,3 hPa 0,0 l/m 0 min 0 min 66 W/m 6,4 km/h (2 Bft) 97,87 %
10.12.2020 12:22 1,2 C 1,1 C 0,5 C 95 % 1007,2 hPa 0,0 l/m 0 min 0 min 69 W/m 3,2 km/h (1 Bft) 100,00 %
10.12.2020 12:24 1,2 C 1,1 C 0,5 C 95 % 1007,2 hPa 0,0 l/m 0 min 0 min 70 W/m 0,0 km/h (0 Bft) 100,00 %
10.12.2020 12:26 1,2 C 1,7 C 0,5 C 95 % 1007,2 hPa 0,0 l/m 0 min 0 min 68 W/m 3,2 km/h (1 Bft) 100,00 %
10.12.2020 12:28 1,2 C 1,7 C 0,5 C 95 % 1007,2 hPa 0,0 l/m 0 min 0 min 66 W/m 3,2 km/h (1 Bft) 100,00 %
10.12.2020 12:30 1,2 C 1,7 C 0,5 C 95 % 1007,1 hPa 0,0 l/m 0 min 0 min 65 W/m 0,0 km/h (0 Bft) 95,74 %
10.12.2020 12:32 1,3 C 1,7 C 0,5 C 95 % 1007,2 hPa 0,0 l/m 0 min 0 min 64 W/m 0,0 km/h (0 Bft) 100,00 %
10.12.2020 12:34 1,3 C 1,7 C 0,5 C 95 % 1007,2 hPa 0,0 l/m 0 min 0 min 62 W/m 0,0 km/h (0 Bft) 57,45 %
10.12.2020 12:36 1,3 C 1,7 C 0,5 C 95 % 1007,1 hPa 0,0 l/m 0 min 0 min 58 W/m 0,0 km/h (0 Bft) 97,83 %
10.12.2020 12:38 1,3 C 1,7 C 0,5 C 95 % 1007,0 hPa 0,0 l/m 0 min 0 min 54 W/m 0,0 km/h (0 Bft) 100,00 %
10.12.2020 12:40 1,3 C 1,1 C 0,5 C 95 % 1007,0 hPa 0,0 l/m 0 min 0 min 52 W/m 0,0 km/h (0 Bft) 95,74 %
10.12.2020 12:42 1,3 C 1,1 C 0,5 C 95 % 1007,0 hPa 0,0 l/m 0 min 0 min 51 W/m 0,0 km/h (0 Bft) 100,00 %
10.12.2020 12:44 1,3 C 1,1 C 0,5 C 95 % 1006,9 hPa 0,0 l/m 0 min 0 min 51 W/m 0,0 km/h (0 Bft) 100,00 %
10.12.2020 12:46 1,3 C 1,1 C 0,5 C 95 % 1006,9 hPa 0,0 l/m 0 min 0 min 50 W/m 0,0 km/h (0 Bft) 97,87 %
10.12.2020 12:48 1,4 C 1,1 C 0,5 C 95 % 1007,0 hPa 0,0 l/m 0 min 0 min 51 W/m 0,0 km/h (0 Bft) 95,65 %
10.12.2020 12:50 1,4 C 1,1 C 0,5 C 95 % 1007,0 hPa 0,0 l/m 0 min 0 min 48 W/m 0,0 km/h (0 Bft) 95,74 %
10.12.2020 12:52 1,4 C 1,1 C 0,5 C 94 % 1007,0 hPa 0,0 l/m 0 min 0 min 46 W/m 0,0 km/h (0 Bft) 95,74 %
10.12.2020 12:54 1,4 C 1,1 C 0,5 C 94 % 1007,0 hPa 0,0 l/m 0 min 0 min 46 W/m 0,0 km/h (0 Bft) 95,74 %
10.12.2020 12:56 1,4 C 1,1 C 0,5 C 94 % 1007,0 hPa 0,0 l/m 0 min 0 min 46 W/m 0,0 km/h (0 Bft) 97,87 %
10.12.2020 12:58 1,4 C 1,1 C 0,5 C 94 % 1007,0 hPa 0,0 l/m 0 min 0 min 47 W/m 0,0 km/h (0 Bft) 95,74 %
10.12.2020 13:00 1,4 C 1,1 C 0,5 C 94 % 1007,0 hPa 0,0 l/m 0 min 0 min 48 W/m 0,0 km/h (0 Bft) 97,83 %
10.12.2020 13:02 1,4 C 1,1 C 0,5 C 94 % 1007,0 hPa 0,0 l/m 0 min 0 min 51 W/m 0,0 km/h (0 Bft) 97,87 %
10.12.2020 13:04 1,4 C 1,7 C 0,5 C 94 % 1007,0 hPa 0,0 l/m 0 min 0 min 53 W/m 0,0 km/h (0 Bft) 97,87 %
10.12.2020 13:06 1,4 C 1,7 C 0,5 C 94 % 1007,0 hPa 0,0 l/m 0 min 0 min 54 W/m 0,0 km/h (0 Bft) 95,74 %
10.12.2020 13:08 1,4 C 1,7 C 0,5 C 94 % 1006,9 hPa 0,0 l/m 0 min 0 min 54 W/m 0,0 km/h (0 Bft) 95,74 %
10.12.2020 13:10 1,5 C 1,7 C 0,5 C 94 % 1006,9 hPa 0,0 l/m 0 min 0 min 54 W/m 0,0 km/h (0 Bft) 93,62 %
10.12.2020 13:12 1,5 C 1,7 C 0,5 C 94 % 1006,9 hPa 0,0 l/m 0 min 0 min 54 W/m 0,0 km/h (0 Bft) 95,65 %
10.12.2020 13:14 1,5 C 1,7 C 0,5 C 94 % 1006,9 hPa 0,0 l/m 0 min 0 min 56 W/m 0,0 km/h (0 Bft) 97,87 %
10.12.2020 13:16 1,5 C 1,7 C 0,5 C 94 % 1007,0 hPa 0,0 l/m 0 min 0 min 58 W/m 0,0 km/h (0 Bft) 97,87 %
10.12.2020 13:18 1,5 C 1,7 C 0,5 C 94 % 1007,0 hPa 0,0 l/m 0 min 0 min 58 W/m 0,0 km/h (0 Bft) 95,74 %
10.12.2020 13:20 1,5 C 1,7 C 0,5 C 94 % 1006,9 hPa 0,0 l/m 0 min 0 min 56 W/m 0,0 km/h (0 Bft) 97,87 %
10.12.2020 13:22 1,5 C 1,7 C 0,5 C 94 % 1006,9 hPa 0,0 l/m 0 min 0 min 54 W/m 0,0 km/h (0 Bft) 97,87 %
10.12.2020 13:24 1,5 C 1,7 C 0,5 C 94 % 1006,8 hPa 0,0 l/m 0 min 0 min 53 W/m 0,0 km/h (0 Bft) 97,83 %
10.12.2020 13:26 1,6 C 1,7 C 0,5 C 94 % 1006,7 hPa 0,0 l/m 0 min 0 min 53 W/m 0,0 km/h (0 Bft) 97,87 %
10.12.2020 13:28 1,6 C 1,7 C 0,5 C 94 % 1006,8 hPa 0,0 l/m 0 min 0 min 53 W/m 0,0 km/h (0 Bft) 97,87 %
10.12.2020 13:30 1,6 C 1,7 C 0,5 C 94 % 1006,8 hPa 0,0 l/m 0 min 0 min 53 W/m 0,0 km/h (0 Bft) 100,00 %
10.12.2020 13:32 1,6 C 1,7 C 0,5 C 94 % 1006,8 hPa 0,0 l/m 0 min 0 min 53 W/m 3,2 km/h (1 Bft) 100,00 %
10.12.2020 13:34 1,6 C 1,7 C 1,1 C 94 % 1006,8 hPa 0,0 l/m 0 min 0 min 51 W/m 0,0 km/h (0 Bft) 97,87 %
10.12.2020 13:36 1,6 C 1,7 C 1,1 C 94 % 1006,8 hPa 0,0 l/m 0 min 0 min 51 W/m 3,2 km/h (1 Bft) 97,83 %
10.12.2020 13:38 1,6 C 1,7 C 1,1 C 94 % 1006,8 hPa 0,0 l/m 0 min 0 min 51 W/m 3,2 km/h (1 Bft) 100,00 %
10.12.2020 13:40 1,6 C 1,7 C 1,1 C 94 % 1006,7 hPa 0,0 l/m 0 min 0 min 51 W/m 3,2 km/h (1 Bft) 100,00 %
10.12.2020 13:42 1,7 C 1,7 C 1,1 C 94 % 1006,8 hPa 0,0 l/m 0 min 0 min 50 W/m 0,0 km/h (0 Bft) 97,87 %
10.12.2020 13:44 1,7 C 1,7 C 1,1 C 94 % 1006,7 hPa 0,0 l/m 0 min 0 min 49 W/m 3,2 km/h (1 Bft) 100,00 %
10.12.2020 13:46 1,7 C 1,7 C 1,1 C 94 % 1006,7 hPa 0,0 l/m 0 min 0 min 47 W/m 0,0 km/h (0 Bft) 100,00 %
10.12.2020 13:48 1,7 C 1,7 C 1,1 C 94 % 1006,6 hPa 0,0 l/m 0 min 0 min 47 W/m 0,0 km/h (0 Bft) 100,00 %
10.12.2020 13:50 1,8 C 1,7 C 1,1 C 94 % 1006,6 hPa 0,0 l/m 0 min 0 min 47 W/m 12,9 km/h (3 Bft) 100,00 %
10.12.2020 13:52 1,8 C 1,7 C 1,1 C 94 % 1006,6 hPa 0,0 l/m 0 min 0 min 47 W/m 3,2 km/h (1 Bft) 97,87 %
10.12.2020 13:54 1,8 C 1,7 C 1,1 C 94 % 1006,6 hPa 0,0 l/m 0 min 0 min 47 W/m 3,2 km/h (1 Bft) 95,74 %
10.12.2020 13:56 1,8 C 1,7 C 1,1 C 94 % 1006,5 hPa 0,0 l/m 0 min 0 min 46 W/m 0,0 km/h (0 Bft) 97,87 %
10.12.2020 13:58 1,8 C 1,7 C 1,1 C 94 % 1006,5 hPa 0,0 l/m 0 min 0 min 45 W/m 6,4 km/h (2 Bft) 98,11 %
10.12.2020 14:00 1,8 C 2,2 C 1,1 C 94 % 1006,5 hPa 0,0 l/m 0 min 0 min 44 W/m 3,2 km/h (1 Bft) 97,83 %
10.12.2020 14:02 1,9 C 2,2 C 1,1 C 94 % 1006,5 hPa 0,0 l/m 0 min 0 min 42 W/m 0,0 km/h (0 Bft) 93,62 %
10.12.2020 14:04 1,9 C 2,2 C 1,1 C 94 % 1006,5 hPa 0,0 l/m 0 min 0 min 42 W/m 0,0 km/h (0 Bft) 95,74 %
10.12.2020 14:06 1,9 C 2,2 C 1,1 C 94 % 1006,5 hPa 0,0 l/m 0 min 0 min 42 W/m 3,2 km/h (1 Bft) 97,87 %
10.12.2020 14:08 1,9 C 2,2 C 1,1 C 94 % 1006,6 hPa 0,0 l/m 0 min 0 min 42 W/m 3,2 km/h (1 Bft) 97,87 %
10.12.2020 14:10 1,9 C 2,2 C 1,1 C 94 % 1006,6 hPa 0,0 l/m 0 min 0 min 43 W/m 0,0 km/h (0 Bft) 97,87 %
10.12.2020 14:12 1,9 C 2,2 C 1,1 C 94 % 1006,6 hPa 0,0 l/m 0 min 0 min 44 W/m 0,0 km/h (0 Bft) 95,65 %
10.12.2020 14:14 1,9 C 2,2 C 1,1 C 94 % 1006,6 hPa 0,0 l/m 0 min 0 min 44 W/m 3,2 km/h (1 Bft) 97,87 %
10.12.2020 14:16 2,0 C 2,2 C 1,1 C 94 % 1006,6 hPa 0,0 l/m 0 min 0 min 45 W/m 0,0 km/h (0 Bft) 97,87 %
10.12.2020 14:18 2,0 C 2,2 C 1,1 C 94 % 1006,6 hPa 0,0 l/m 0 min 0 min 46 W/m 0,0 km/h (0 Bft) 95,74 %
10.12.2020 14:20 2,0 C 2,2 C 1,1 C 94 % 1006,5 hPa 0,0 l/m 0 min 0 min 47 W/m 0,0 km/h (0 Bft) 97,87 %
10.12.2020 14:22 2,0 C 2,2 C 1,1 C 94 % 1006,6 hPa 0,0 l/m 0 min 0 min 47 W/m 0,0 km/h (0 Bft) 97,83 %
10.12.2020 14:24 2,0 C 2,2 C 1,1 C 94 % 1006,5 hPa 0,0 l/m 0 min 0 min 47 W/m 0,0 km/h (0 Bft) 97,87 %
10.12.2020 14:26 2,1 C 2,2 C 1,1 C 94 % 1006,6 hPa 0,0 l/m 0 min 0 min 46 W/m 0,0 km/h (0 Bft) 97,87 %
10.12.2020 14:28 2,1 C 2,2 C 1,1 C 94 % 1006,6 hPa 0,0 l/m 0 min 0 min 43 W/m 6,4 km/h (2 Bft) 97,87 %
10.12.2020 14:30 2,1 C 2,2 C 1,1 C 94 % 1006,5 hPa 0,0 l/m 0 min 0 min 42 W/m 0,0 km/h (0 Bft) 97,87 %
10.12.2020 14:32 2,1 C 2,2 C 1,1 C 94 % 1006,5 hPa 0,0 l/m 0 min 0 min 40 W/m 0,0 km/h (0 Bft) 95,74 %
10.12.2020 14:34 2,1 C 2,2 C 1,1 C 94 % 1006,5 hPa 0,0 l/m 0 min 0 min 40 W/m 3,2 km/h (1 Bft) 100,00 %
10.12.2020 14:36 2,1 C 2,2 C 1,1 C 94 % 1006,5 hPa 0,0 l/m 0 min 0 min 40 W/m 0,0 km/h (0 Bft) 100,00 %
10.12.2020 14:38 2,1 C 2,2 C 1,1 C 94 % 1006,4 hPa 0,0 l/m 0 min 0 min 40 W/m 3,2 km/h (1 Bft) 100,00 %
10.12.2020 14:40 2,1 C 1,7 C 1,1 C 94 % 1006,4 hPa 0,0 l/m 0 min 0 min 41 W/m 0,0 km/h (0 Bft) 100,00 %
10.12.2020 14:42 2,1 C 1,7 C 1,1 C 94 % 1006,4 hPa 0,0 l/m 0 min 0 min 42 W/m 0,0 km/h (0 Bft) 100,00 %
10.12.2020 14:44 2,1 C 1,7 C 1,1 C 93 % 1006,4 hPa 0,0 l/m 0 min 0 min 44 W/m 3,2 km/h (1 Bft) 100,00 %
10.12.2020 14:46 2,1 C 1,7 C 1,1 C 93 % 1006,4 hPa 0,0 l/m 0 min 0 min 43 W/m 0,0 km/h (0 Bft) 100,00 %
10.12.2020 14:48 2,1 C 1,7 C 1,1 C 93 % 1006,4 hPa 0,0 l/m 0 min 0 min 42 W/m 0,0 km/h (0 Bft) 100,00 %
10.12.2020 14:50 2,1 C 1,7 C 1,1 C 93 % 1006,3 hPa 0,0 l/m 0 min 0 min 42 W/m 3,2 km/h (1 Bft) 97,87 %
10.12.2020 14:52 2,1 C 1,7 C 1,1 C 93 % 1006,3 hPa 0,0 l/m 0 min 0 min 40 W/m 3,2 km/h (1 Bft) 97,87 %
10.12.2020 14:54 2,1 C 1,7 C 1,1 C 93 % 1006,2 hPa 0,0 l/m 0 min 0 min 39 W/m 3,2 km/h (1 Bft) 100,00 %
10.12.2020 14:56 2,1 C 1,7 C 1,1 C 93 % 1006,2 hPa 0,0 l/m 0 min 0 min 38 W/m 3,2 km/h (1 Bft) 100,00 %
10.12.2020 14:58 2,1 C 1,7 C 1,1 C 93 % 1006,1 hPa 0,0 l/m 0 min 0 min 36 W/m 0,0 km/h (0 Bft) 100,00 %
10.12.2020 15:00 2,1 C 1,7 C 1,1 C 93 % 1006,1 hPa 0,0 l/m 0 min 0 min 33 W/m 6,4 km/h (2 Bft) 100,00 %
10.12.2020 15:02 2,1 C 1,7 C 1,1 C 93 % 1006,1 hPa 0,0 l/m 0 min 0 min 32 W/m 0,0 km/h (0 Bft) 100,00 %
10.12.2020 15:04 2,1 C 1,7 C 1,1 C 93 % 1006,1 hPa 0,0 l/m 0 min 0 min 29 W/m 6,4 km/h (2 Bft) 100,00 %
10.12.2020 15:06 2,1 C 1,7 C 1,1 C 93 % 1006,2 hPa 0,0 l/m 0 min 0 min 27 W/m 6,4 km/h (2 Bft) 100,00 %
10.12.2020 15:08 2,0 C 1,7 C 1,1 C 93 % 1006,2 hPa 0,0 l/m 0 min 0 min 25 W/m 0,0 km/h (0 Bft) 97,83 %
10.12.2020 15:10 2,0 C 1,7 C 1,1 C 93 % 1006,2 hPa 0,0 l/m 0 min 0 min 23 W/m 0,0 km/h (0 Bft) 100,00 %
10.12.2020 15:12 2,0 C 1,7 C 1,1 C 93 % 1006,2 hPa 0,0 l/m 0 min 0 min 22 W/m 0,0 km/h (0 Bft) 100,00 %
10.12.2020 15:14 2,0 C 1,7 C 1,1 C 93 % 1006,1 hPa 0,0 l/m 0 min 0 min 21 W/m 0,0 km/h (0 Bft) 100,00 %
10.12.2020 15:16 2,0 C 1,7 C 1,1 C 93 % 1006,1 hPa 0,0 l/m 0 min 0 min 19 W/m 3,2 km/h (1 Bft) 100,00 %
10.12.2020 15:18 2,0 C 1,7 C 1,1 C 93 % 1006,2 hPa 0,0 l/m 0 min 0 min 18 W/m 0,0 km/h (0 Bft) 100,00 %
10.12.2020 15:20 2,0 C 1,7 C 1,1 C 93 % 1006,1 hPa 0,0 l/m 0 min 0 min 18 W/m 3,2 km/h (1 Bft) 100,00 %
10.12.2020 15:22 2,0 C 1,7 C 1,1 C 93 % 1006,2 hPa 0,0 l/m 0 min 0 min 17 W/m 6,4 km/h (2 Bft) 97,87 %
10.12.2020 15:24 2,0 C 1,7 C 1,1 C 93 % 1006,2 hPa 0,0 l/m 0 min 0 min 16 W/m 0,0 km/h (0 Bft) 97,87 %
10.12.2020 15:26 2,0 C 1,7 C 1,1 C 93 % 1006,3 hPa 0,0 l/m 0 min 0 min 16 W/m 0,0 km/h (0 Bft) 97,87 %
10.12.2020 15:28 2,0 C 1,7 C 1,1 C 93 % 1006,2 hPa 0,0 l/m 0 min 0 min 14 W/m 0,0 km/h (0 Bft) 95,74 %
10.12.2020 15:30 2,0 C 1,7 C 1,1 C 93 % 1006,2 hPa 0,0 l/m 0 min 0 min 14 W/m 0,0 km/h (0 Bft) 97,87 %
10.12.2020 15:32 2,0 C 1,7 C 1,1 C 93 % 1006,2 hPa 0,0 l/m 0 min 0 min 14 W/m 0,0 km/h (0 Bft) 97,83 %
10.12.2020 15:34 2,0 C 1,7 C 1,1 C 93 % 1006,3 hPa 0,0 l/m 0 min 0 min 13 W/m 0,0 km/h (0 Bft) 93,62 %
10.12.2020 15:36 2,0 C 1,7 C 1,1 C 93 % 1006,3 hPa 0,0 l/m 0 min 0 min 12 W/m 0,0 km/h (0 Bft) 95,74 %
10.12.2020 15:38 2,0 C 1,7 C 1,1 C 93 % 1006,4 hPa 0,0 l/m 0 min 0 min 12 W/m 0,0 km/h (0 Bft) 97,87 %
10.12.2020 15:40 2,0 C 1,7 C 1,1 C 93 % 1006,4 hPa 0,0 l/m 0 min 0 min 12 W/m 3,2 km/h (1 Bft) 97,87 %
10.12.2020 15:42 2,0 C 1,7 C 1,1 C 93 % 1006,5 hPa 0,0 l/m 0 min 0 min 12 W/m 0,0 km/h (0 Bft) 97,87 %
10.12.2020 15:44 2,0 C 1,7 C 1,1 C 93 % 1006,4 hPa 0,0 l/m 0 min 0 min 12 W/m 0,0 km/h (0 Bft) 97,83 %
10.12.2020 15:46 2,0 C 1,7 C 1,1 C 93 % 1006,4 hPa 0,0 l/m 0 min 0 min 12 W/m 3,2 km/h (1 Bft) 95,74 %
10.12.2020 15:48 2,0 C 1,7 C 1,1 C 93 % 1006,4 hPa 0,0 l/m 0 min 0 min 11 W/m 0,0 km/h (0 Bft) 97,87 %
10.12.2020 15:50 2,0 C 1,7 C 1,1 C 93 % 1006,5 hPa 0,0 l/m 0 min 0 min 11 W/m 0,0 km/h (0 Bft) 97,87 %
10.12.2020 15:52 2,0 C 1,7 C 1,1 C 93 % 1006,6 hPa 0,0 l/m 0 min 0 min 11 W/m 0,0 km/h (0 Bft) 97,87 %
10.12.2020 15:54 2,0 C 1,7 C 1,1 C 93 % 1006,6 hPa 0,0 l/m 0 min 0 min 11 W/m 0,0 km/h (0 Bft) 97,83 %
10.12.2020 15:56 2,0 C 1,7 C 1,1 C 93 % 1006,6 hPa 0,0 l/m 0 min 0 min 9 W/m 3,2 km/h (1 Bft) 97,87 %
10.12.2020 15:58 2,0 C 1,7 C 1,1 C 93 % 1006,5 hPa 0,0 l/m 0 min 0 min 9 W/m 0,0 km/h (0 Bft) 97,87 %
10.12.2020 16:00 2,0 C 1,7 C 1,1 C 93 % 1006,6 hPa 0,0 l/m 0 min 0 min 9 W/m 0,0 km/h (0 Bft) 97,87 %
10.12.2020 16:02 2,0 C 1,7 C 1,1 C 92 % 1006,5 hPa 0,0 l/m 0 min 0 min 9 W/m 0,0 km/h (0 Bft) 95,74 %
10.12.2020 16:04 2,0 C 1,7 C 1,1 C 92 % 1006,6 hPa 0,0 l/m 0 min 0 min 10 W/m 0,0 km/h (0 Bft) 97,87 %
10.12.2020 16:06 1,9 C 1,7 C 1,1 C 93 % 1006,5 hPa 0,0 l/m 0 min 0 min 11 W/m 0,0 km/h (0 Bft) 95,65 %
10.12.2020 16:08 1,9 C 1,7 C 1,1 C 92 % 1006,5 hPa 0,0 l/m 0 min 0 min 12 W/m 0,0 km/h (0 Bft) 97,87 %
10.12.2020 16:10 1,9 C 1,7 C 1,1 C 92 % 1006,6 hPa 0,0 l/m 0 min 0 min 11 W/m 0,0 km/h (0 Bft) 97,87 %
10.12.2020 16:12 1,9 C 1,7 C 1,1 C 92 % 1006,6 hPa 0,0 l/m 0 min 0 min 11 W/m 0,0 km/h (0 Bft) 97,87 %
10.12.2020 16:14 1,9 C 1,7 C 0,5 C 92 % 1006,7 hPa 0,0 l/m 0 min 0 min 11 W/m 0,0 km/h (0 Bft) 100,00 %
10.12.2020 16:16 1,9 C 1,7 C 0,5 C 92 % 1006,7 hPa 0,0 l/m 0 min 0 min 11 W/m 0,0 km/h (0 Bft) 97,87 %
10.12.2020 16:18 1,9 C 1,7 C 0,5 C 92 % 1006,8 hPa 0,0 l/m 0 min 0 min 11 W/m 0,0 km/h (0 Bft) 95,65 %
10.12.2020 16:20 1,9 C 1,7 C 0,5 C 92 % 1006,8 hPa 0,0 l/m 0 min 0 min 10 W/m 3,2 km/h (1 Bft) 97,87 %
10.12.2020 16:22 1,9 C 1,7 C 0,5 C 92 % 1006,8 hPa 0,0 l/m 0 min 0 min 7 W/m 3,2 km/h (1 Bft) 100,00 %
10.12.2020 16:24 1,9 C 1,7 C 0,5 C 92 % 1006,8 hPa 0,0 l/m 0 min 0 min 7 W/m 0,0 km/h (0 Bft) 97,87 %
10.12.2020 16:26 1,9 C 1,1 C 0,5 C 92 % 1006,8 hPa 0,0 l/m 0 min 0 min 7 W/m 0,0 km/h (0 Bft) 97,87 %
10.12.2020 16:28 1,9 C 1,1 C 0,5 C 92 % 1006,7 hPa 0,0 l/m 0 min 0 min 7 W/m 0,0 km/h (0 Bft) 95,74 %
10.12.2020 16:30 1,9 C 1,1 C 0,5 C 92 % 1006,7 hPa 0,0 l/m 0 min 0 min 7 W/m 0,0 km/h (0 Bft) 97,83 %
10.12.2020 16:32 1,9 C 1,1 C 0,5 C 92 % 1006,7 hPa 0,0 l/m 0 min 0 min 7 W/m 0,0 km/h (0 Bft) 97,87 %
10.12.2020 16:34 1,9 C 1,1 C 0,5 C 92 % 1006,7 hPa 0,0 l/m 0 min 0 min 7 W/m 0,0 km/h (0 Bft) 97,87 %
10.12.2020 16:35 1,9 C 1,1 C 0,5 C 92 % 1006,7 hPa 0,0 l/m 0 min 0 min 7 W/m 0,0 km/h (0 Bft) 100,00 %
10.12.2020 16:40 1,9 C 1,1 C 0,5 C 92 % 1006,7 hPa 0,0 l/m 0 min 0 min 3 W/m 0,0 km/h (0 Bft) 100,00 %
10.12.2020 16:45 1,8 C 0,6 C -0,1 C 92 % 1006,7 hPa 0,0 l/m 0 min 0 min 0 W/m 0,0 km/h (0 Bft) 100,00 %
10.12.2020 16:50 1,8 C 0,6 C -0,1 C 92 % 1006,6 hPa 0,0 l/m 0 min 0 min 0 W/m 0,0 km/h (0 Bft) 99,12 %
10.12.2020 16:55 1,6 C 0,6 C -0,1 C 92 % 1006,6 hPa 0,0 l/m 0 min 0 min 0 W/m 0,0 km/h (0 Bft) 100,00 %
10.12.2020 17:00 1,6 C 0,6 C -0,1 C 92 % 1006,6 hPa 0,0 l/m 0 min 0 min 0 W/m 0,0 km/h (0 Bft) 99,12 %
10.12.2020 17:05 1,5 C 0,6 C -0,1 C 92 % 1006,6 hPa 0,0 l/m 0 min 0 min 0 W/m 0,0 km/h (0 Bft) 100,00 %
10.12.2020 17:10 1,4 C 0,0 C -0,1 C 92 % 1006,6 hPa 0,0 l/m 0 min 0 min 0 W/m 0,0 km/h (0 Bft) 100,00 %
10.12.2020 17:15 1,4 C 0,0 C -0,6 C 92 % 1006,6 hPa 0,0 l/m 0 min 0 min 0 W/m 0,0 km/h (0 Bft) 100,00 %
10.12.2020 17:20 1,3 C 0,0 C -0,6 C 92 % 1006,5 hPa 0,0 l/m 0 min 0 min 0 W/m 0,0 km/h (0 Bft) 100,00 %
10.12.2020 17:25 1,2 C 0,0 C -0,6 C 92 % 1006,5 hPa 0,0 l/m 0 min 0 min 0 W/m 0,0 km/h (0 Bft) 100,00 %
10.12.2020 17:30 1,1 C 0,0 C -0,6 C 92 % 1006,5 hPa 0,0 l/m 0 min 0 min 0 W/m 0,0 km/h (0 Bft) 100,00 %
10.12.2020 17:35 1,0 C 0,0 C -0,6 C 92 % 1006,5 hPa 0,0 l/m 0 min 0 min 0 W/m 0,0 km/h (0 Bft) 100,00 %
10.12.2020 17:40 1,0 C 0,0 C -0,6 C 92 % 1006,5 hPa 0,0 l/m 0 min 0 min 0 W/m 0,0 km/h (0 Bft) 100,00 %
10.12.2020 17:45 0,9 C 0,0 C -0,6 C 92 % 1006,6 hPa 0,0 l/m 0 min 0 min 0 W/m 0,0 km/h (0 Bft) 100,00 %
10.12.2020 17:50 0,8 C 0,0 C -0,6 C 92 % 1006,5 hPa 0,0 l/m 0 min 0 min 0 W/m 0,0 km/h (0 Bft) 100,00 %
10.12.2020 17:55 0,8 C 0,0 C -0,6 C 93 % 1006,5 hPa 0,0 l/m 0 min 0 min 0 W/m 0,0 km/h (0 Bft) 100,00 %
10.12.2020 18:00 0,7 C 0,0 C -0,6 C 93 % 1006,5 hPa 0,0 l/m 0 min 0 min 0 W/m 3,2 km/h (1 Bft) 100,00 %
10.12.2020 18:05 0,6 C 0,0 C -0,6 C 93 % 1006,4 hPa 0,0 l/m 0 min 0 min 0 W/m 0,0 km/h (0 Bft) 100,00 %
10.12.2020 18:10 0,6 C 0,0 C -0,6 C 93 % 1006,4 hPa 0,0 l/m 0 min 0 min 0 W/m 3,2 km/h (1 Bft) 100,00 %
10.12.2020 18:15 0,6 C 0,0 C -0,6 C 93 % 1006,4 hPa 0,0 l/m 0 min 0 min 0 W/m 0,0 km/h (0 Bft) 100,00 %
10.12.2020 18:20 0,6 C 0,0 C -0,6 C 93 % 1006,4 hPa 0,0 l/m 0 min 0 min 0 W/m 0,0 km/h (0 Bft) 100,00 %
10.12.2020 18:25 0,6 C 0,0 C -0,6 C 93 % 1006,3 hPa 0,0 l/m 0 min 0 min 0 W/m 6,4 km/h (2 Bft) 100,00 %
10.12.2020 18:30 0,6 C 0,0 C -0,6 C 93 % 1006,3 hPa 0,0 l/m 0 min 0 min 0 W/m 3,2 km/h (1 Bft) 99,12 %
10.12.2020 18:35 0,6 C 0,0 C -0,6 C 94 % 1006,3 hPa 0,0 l/m 0 min 0 min 0 W/m 0,0 km/h (0 Bft) 100,00 %
10.12.2020 18:40 0,5 C 0,0 C -0,6 C 94 % 1006,2 hPa 0,0 l/m 0 min 0 min 0 W/m 0,0 km/h (0 Bft) 98,25 %
10.12.2020 18:45 0,5 C 0,0 C -0,6 C 94 % 1006,4 hPa 0,0 l/m 0 min 0 min 0 W/m 0,0 km/h (0 Bft) 98,25 %
10.12.2020 18:50 0,5 C 0,0 C -0,6 C 94 % 1006,3 hPa 0,0 l/m 0 min 0 min 0 W/m 0,0 km/h (0 Bft) 98,25 %
10.12.2020 18:55 0,6 C 0,6 C -0,6 C 94 % 1006,3 hPa 0,0 l/m 0 min 0 min 0 W/m 6,4 km/h (2 Bft) 97,37 %
10.12.2020 19:00 0,6 C 0,6 C -0,6 C 94 % 1006,3 hPa 0,0 l/m 0 min 0 min 0 W/m 6,4 km/h (2 Bft) 96,49 %
10.12.2020 19:06 0,7 C 0,6 C -0,6 C 94 % 1006,0 hPa 0,0 l/m 0 min 0 min 0 W/m 6,4 km/h (2 Bft) 95,24 %
10.12.2020 19:08 0,7 C 0,6 C -0,6 C 94 % 1006,1 hPa 0,0 l/m 0 min 0 min 0 W/m 12,9 km/h (3 Bft) 94,44 %
10.12.2020 19:10 0,8 C 0,6 C -0,6 C 94 % 1006,1 hPa 0,0 l/m 0 min 0 min 0 W/m 12,9 km/h (3 Bft) 97,83 %
10.12.2020 19:12 0,8 C 0,6 C -0,6 C 94 % 1006,1 hPa 0,0 l/m 0 min 0 min 0 W/m 12,9 km/h (3 Bft) 95,74 %
10.12.2020 19:14 0,8 C 0,6 C -0,6 C 94 % 1006,1 hPa 0,0 l/m 0 min 0 min 0 W/m 12,9 km/h (3 Bft) 97,87 %
10.12.2020 19:16 0,8 C 0,6 C -0,6 C 93 % 1006,1 hPa 0,0 l/m 0 min 0 min 0 W/m 3,2 km/h (1 Bft) 97,87 %
10.12.2020 19:18 0,8 C 0,6 C -0,6 C 93 % 1006,0 hPa 0,0 l/m 0 min 0 min 0 W/m 6,4 km/h (2 Bft) 97,87 %
10.12.2020 19:20 0,8 C 0,6 C -0,6 C 93 % 1006,1 hPa 0,0 l/m 0 min 0 min 0 W/m 6,4 km/h (2 Bft) 95,74 %
10.12.2020 19:22 0,8 C 0,0 C -0,6 C 93 % 1006,0 hPa 0,0 l/m 0 min 0 min 0 W/m 3,2 km/h (1 Bft) 97,83 %
10.12.2020 19:24 0,8 C 0,0 C -0,6 C 93 % 1006,0 hPa 0,0 l/m 0 min 0 min 0 W/m 6,4 km/h (2 Bft) 97,87 %
10.12.2020 19:26 0,8 C 0,0 C -0,6 C 93 % 1006,0 hPa 0,0 l/m 0 min 0 min 0 W/m 3,2 km/h (1 Bft) 97,87 %
10.12.2020 19:28 0,8 C 0,0 C -0,6 C 93 % 1006,0 hPa 0,0 l/m 0 min 0 min 0 W/m 6,4 km/h (2 Bft) 100,00 %
10.12.2020 19:30 0,7 C 0,0 C -0,6 C 93 % 1005,9 hPa 0,0 l/m 0 min 0 min 0 W/m 6,4 km/h (2 Bft) 100,00 %
10.12.2020 19:32 0,7 C 0,0 C -0,6 C 93 % 1006,0 hPa 0,0 l/m 0 min 0 min 0 W/m 16,1 km/h (3 Bft) 97,87 %
10.12.2020 19:34 0,7 C 0,0 C -0,6 C 93 % 1006,0 hPa 0,0 l/m 0 min 0 min 0 W/m 6,4 km/h (2 Bft) 100,00 %
10.12.2020 19:36 0,7 C 0,0 C -0,6 C 93 % 1006,0 hPa 0,0 l/m 0 min 0 min 0 W/m 6,4 km/h (2 Bft) 100,00 %
10.12.2020 19:38 0,6 C 0,0 C -0,6 C 93 % 1005,9 hPa 0,0 l/m 0 min 0 min 0 W/m 3,2 km/h (1 Bft) 97,87 %
10.12.2020 19:40 0,6 C 0,0 C -0,6 C 93 % 1005,9 hPa 0,0 l/m 0 min 0 min 0 W/m 6,4 km/h (2 Bft) 100,00 %
10.12.2020 19:42 0,6 C 0,0 C -0,6 C 93 % 1005,9 hPa 0,0 l/m 0 min 0 min 0 W/m 6,4 km/h (2 Bft) 97,87 %
10.12.2020 19:44 0,6 C 0,0 C -0,6 C 93 % 1005,8 hPa 0,0 l/m 0 min 0 min 0 W/m 6,4 km/h (2 Bft) 100,00 %
10.12.2020 19:46 0,6 C 0,0 C -0,6 C 93 % 1005,8 hPa 0,0 l/m 0 min 0 min 0 W/m 12,9 km/h (3 Bft) 100,00 %
10.12.2020 19:48 0,5 C 0,0 C -0,6 C 93 % 1005,9 hPa 0,0 l/m 0 min 0 min 0 W/m 16,1 km/h (3 Bft) 95,74 %
10.12.2020 19:50 0,5 C 0,0 C -0,6 C 93 % 1005,8 hPa 0,0 l/m 0 min 0 min 0 W/m 3,2 km/h (1 Bft) 100,00 %
10.12.2020 19:52 0,5 C 0,0 C -0,6 C 93 % 1005,8 hPa 0,0 l/m 0 min 0 min 0 W/m 6,4 km/h (2 Bft) 100,00 %
10.12.2020 19:54 0,5 C 0,0 C -0,6 C 93 % 1005,7 hPa 0,0 l/m 0 min 0 min 0 W/m 6,4 km/h (2 Bft) 97,87 %
10.12.2020 19:56 0,5 C 0,0 C -0,6 C 93 % 1005,7 hPa 0,0 l/m 0 min 0 min 0 W/m 6,4 km/h (2 Bft) 100,00 %
10.12.2020 19:58 0,5 C 0,0 C -0,6 C 93 % 1005,8 hPa 0,0 l/m 0 min 0 min 0 W/m 3,2 km/h (1 Bft) 100,00 %
10.12.2020 20:00 0,5 C 0,0 C -0,6 C 93 % 1005,8 hPa 0,0 l/m 0 min 0 min 0 W/m 3,2 km/h (1 Bft) 100,00 %
10.12.2020 20:02 0,5 C 0,0 C -0,6 C 93 % 1005,7 hPa 0,0 l/m 0 min 0 min 0 W/m 12,9 km/h (3 Bft) 100,00 %
10.12.2020 20:04 0,5 C 0,0 C -0,6 C 93 % 1005,7 hPa 0,0 l/m 0 min 0 min 0 W/m 19,3 km/h (3 Bft) 100,00 %
10.12.2020 20:06 0,5 C 0,0 C -0,6 C 93 % 1005,7 hPa 0,0 l/m 0 min 0 min 0 W/m 12,9 km/h (3 Bft) 100,00 %
10.12.2020 20:08 0,5 C 0,0 C -0,6 C 93 % 1005,7 hPa 0,0 l/m 0 min 0 min 0 W/m 6,4 km/h (2 Bft) 100,00 %
10.12.2020 20:10 0,5 C 0,0 C -0,6 C 93 % 1005,6 hPa 0,0 l/m 0 min 0 min 0 W/m 6,4 km/h (2 Bft) 97,87 %
10.12.2020 20:12 0,5 C 0,0 C -0,6 C 93 % 1005,7 hPa 0,0 l/m 0 min 0 min 0 W/m 6,4 km/h (2 Bft) 97,87 %
10.12.2020 20:14 0,5 C 0,0 C -0,6 C 93 % 1005,7 hPa 0,0 l/m 0 min 0 min 0 W/m 6,4 km/h (2 Bft) 100,00 %
10.12.2020 20:16 0,5 C 0,0 C -1,2 C 93 % 1005,7 hPa 0,0 l/m 0 min 0 min 0 W/m 3,2 km/h (1 Bft) 97,87 %
10.12.2020 20:18 0,5 C 0,0 C -1,2 C 93 % 1005,8 hPa 0,0 l/m 0 min 0 min 0 W/m 6,4 km/h (2 Bft) 100,00 %
10.12.2020 20:20 0,5 C 0,0 C -1,2 C 93 % 1005,9 hPa 0,0 l/m 0 min 0 min 0 W/m 3,2 km/h (1 Bft) 100,00 %
10.12.2020 20:22 0,5 C 0,0 C -0,6 C 93 % 1005,9 hPa 0,0 l/m 0 min 0 min 0 W/m 12,9 km/h (3 Bft) 100,00 %
10.12.2020 20:24 0,5 C 0,0 C -1,2 C 93 % 1005,9 hPa 0,0 l/m 0 min 0 min 0 W/m 6,4 km/h (2 Bft) 100,00 %
10.12.2020 20:26 0,5 C 0,0 C -0,6 C 93 % 1005,9 hPa 0,0 l/m 0 min 0 min 0 W/m 6,4 km/h (2 Bft) 100,00 %
10.12.2020 20:28 0,5 C 0,0 C -1,2 C 93 % 1005,9 hPa 0,0 l/m 0 min 0 min 0 W/m 12,9 km/h (3 Bft) 100,00 %
10.12.2020 20:30 0,5 C 0,0 C -1,2 C 93 % 1005,9 hPa 0,0 l/m 0 min 0 min 0 W/m 6,4 km/h (2 Bft) 100,00 %
10.12.2020 20:32 0,5 C 0,0 C -1,2 C 93 % 1005,9 hPa 0,0 l/m 0 min 0 min 0 W/m 16,1 km/h (3 Bft) 100,00 %
10.12.2020 20:34 0,4 C 0,0 C -1,2 C 93 % 1005,9 hPa 0,0 l/m 0 min 0 min 0 W/m 12,9 km/h (3 Bft) 100,00 %
10.12.2020 20:36 0,4 C 0,0 C -1,2 C 93 % 1006,0 hPa 0,0 l/m 0 min 0 min 0 W/m 6,4 km/h (2 Bft) 100,00 %
10.12.2020 20:38 0,4 C 0,0 C -1,2 C 93 % 1005,9 hPa 0,0 l/m 0 min 0 min 0 W/m 19,3 km/h (3 Bft) 100,00 %
10.12.2020 20:40 0,4 C 0,0 C -1,2 C 93 % 1005,9 hPa 0,0 l/m 0 min 0 min 0 W/m 12,9 km/h (3 Bft) 100,00 %
10.12.2020 20:42 0,4 C 0,0 C -1,2 C 93 % 1005,9 hPa 0,0 l/m 0 min 0 min 0 W/m 3,2 km/h (1 Bft) 97,87 %
10.12.2020 20:44 0,4 C 0,0 C -1,2 C 93 % 1005,9 hPa 0,0 l/m 0 min 0 min 0 W/m 0,0 km/h (0 Bft) 97,87 %
10.12.2020 20:46 0,4 C 0,0 C -1,2 C 93 % 1005,8 hPa 0,0 l/m 0 min 0 min 0 W/m 3,2 km/h (1 Bft) 100,00 %
10.12.2020 20:48 0,4 C 0,0 C -1,2 C 93 % 1005,9 hPa 0,0 l/m 0 min 0 min 0 W/m 3,2 km/h (1 Bft) 100,00 %
10.12.2020 20:50 0,4 C 0,0 C -1,2 C 93 % 1005,9 hPa 0,0 l/m 0 min 0 min 0 W/m 3,2 km/h (1 Bft) 97,83 %
10.12.2020 20:52 0,4 C 0,0 C -1,2 C 93 % 1005,8 hPa 0,0 l/m 0 min 0 min 0 W/m 16,1 km/h (3 Bft) 100,00 %
10.12.2020 20:54 0,3 C -0,6 C -1,2 C 93 % 1005,8 hPa 0,0 l/m 0 min 0 min 0 W/m 3,2 km/h (1 Bft) 95,74 %
10.12.2020 20:56 0,3 C 0,0 C -1,2 C 93 % 1005,8 hPa 0,0 l/m 0 min 0 min 0 W/m 6,4 km/h (2 Bft) 97,87 %
10.12.2020 20:58 0,3 C 0,0 C -1,2 C 93 % 1005,8 hPa 0,0 l/m 0 min 0 min 0 W/m 6,4 km/h (2 Bft) 100,00 %
10.12.2020 21:00 0,3 C 0,0 C -1,2 C 93 % 1005,8 hPa 0,0 l/m 0 min 0 min 0 W/m 19,3 km/h (3 Bft) 100,00 %
10.12.2020 21:02 0,3 C 0,0 C -1,2 C 93 % 1005,8 hPa 0,0 l/m 0 min 0 min 0 W/m 12,9 km/h (3 Bft) 97,83 %
10.12.2020 21:04 0,3 C 0,0 C -1,2 C 93 % 1005,7 hPa 0,0 l/m 0 min 0 min 0 W/m 12,9 km/h (3 Bft) 97,87 %
10.12.2020 21:06 0,3 C 0,0 C -1,2 C 93 % 1005,7 hPa 0,0 l/m 0 min 0 min 0 W/m 16,1 km/h (3 Bft) 100,00 %
10.12.2020 21:08 0,3 C 0,0 C -1,2 C 93 % 1005,7 hPa 0,0 l/m 0 min 0 min 0 W/m 19,3 km/h (3 Bft) 95,83 %
10.12.2020 21:10 0,3 C 0,0 C -1,2 C 93 % 1005,8 hPa 0,0 l/m 0 min 0 min 0 W/m 12,9 km/h (3 Bft) 97,30 %
10.12.2020 21:12 0,3 C 0,0 C -1,2 C 93 % 1005,8 hPa 0,0 l/m 0 min 0 min 0 W/m 6,4 km/h (2 Bft) 100,00 %
10.12.2020 21:14 0,3 C 0,0 C -1,2 C 93 % 1005,9 hPa 0,0 l/m 0 min 0 min 0 W/m 12,9 km/h (3 Bft) 97,87 %
10.12.2020 21:16 0,3 C 0,0 C -1,2 C 93 % 1005,9 hPa 0,0 l/m 0 min 0 min 0 W/m 3,2 km/h (1 Bft) 97,87 %
10.12.2020 21:18 0,3 C 0,0 C -1,2 C 92 % 1005,9 hPa 0,0 l/m 0 min 0 min 0 W/m 12,9 km/h (3 Bft) 95,74 %
10.12.2020 21:20 0,3 C 0,0 C -1,2 C 92 % 1005,9 hPa 0,0 l/m 0 min 0 min 0 W/m 16,1 km/h (3 Bft) 95,65 %
10.12.2020 21:22 0,3 C 0,0 C -1,2 C 92 % 1005,9 hPa 0,0 l/m 0 min 0 min 0 W/m 12,9 km/h (3 Bft) 93,62 %
10.12.2020 21:24 0,3 C 0,0 C -1,2 C 92 % 1005,8 hPa 0,0 l/m 0 min 0 min 0 W/m 6,4 km/h (2 Bft) 93,62 %
10.12.2020 21:26 0,3 C 0,0 C -1,2 C 92 % 1005,8 hPa 0,0 l/m 0 min 0 min 0 W/m 12,9 km/h (3 Bft) 55,32 %
10.12.2020 21:28 0,3 C 0,0 C -1,2 C 92 % 1005,8 hPa 0,0 l/m 0 min 0 min 0 W/m 22,5 km/h (4 Bft) 95,74 %
10.12.2020 21:30 0,3 C 0,0 C -1,2 C 92 % 1005,7 hPa 0,0 l/m 0 min 0 min 0 W/m 19,3 km/h (3 Bft) 95,74 %
10.12.2020 21:32 0,3 C 0,0 C -1,2 C 92 % 1005,7 hPa 0,0 l/m 0 min 0 min 0 W/m 12,9 km/h (3 Bft) 93,48 %
10.12.2020 21:34 0,3 C 0,0 C -1,2 C 92 % 1005,6 hPa 0,0 l/m 0 min 0 min 0 W/m 9,7 km/h (2 Bft) 95,74 %
10.12.2020 21:36 0,3 C 0,0 C -0,6 C 92 % 1005,7 hPa 0,0 l/m 0 min 0 min 0 W/m 9,7 km/h (2 Bft) 91,49 %
10.12.2020 21:38 0,3 C 0,0 C -0,6 C 92 % 1005,6 hPa 0,0 l/m 0 min 0 min 0 W/m 6,4 km/h (2 Bft) 95,74 %
10.12.2020 21:40 0,4 C 0,0 C -1,2 C 92 % 1005,6 hPa 0,0 l/m 0 min 0 min 0 W/m 19,3 km/h (3 Bft) 95,74 %
10.12.2020 21:42 0,4 C 0,0 C -1,2 C 92 % 1005,6 hPa 0,0 l/m 0 min 0 min 0 W/m 12,9 km/h (3 Bft) 95,65 %
10.12.2020 21:44 0,4 C 0,0 C -1,2 C 92 % 1005,6 hPa 0,0 l/m 0 min 0 min 0 W/m 6,4 km/h (2 Bft) 97,87 %
10.12.2020 21:46 0,4 C 0,0 C -1,2 C 92 % 1005,6 hPa 0,0 l/m 0 min 0 min 0 W/m 19,3 km/h (3 Bft) 95,74 %
10.12.2020 21:48 0,4 C 0,0 C -0,6 C 92 % 1005,7 hPa 0,0 l/m 0 min 0 min 0 W/m 19,3 km/h (3 Bft) 97,87 %
10.12.2020 21:50 0,4 C 0,0 C -0,6 C 92 % 1005,6 hPa 0,0 l/m 0 min 0 min 0 W/m 12,9 km/h (3 Bft) 97,87 %
10.12.2020 21:52 0,4 C 0,0 C -0,6 C 92 % 1005,6 hPa 0,0 l/m 0 min 0 min 0 W/m 16,1 km/h (3 Bft) 100,00 %
10.12.2020 21:54 0,4 C 0,0 C -0,6 C 92 % 1005,6 hPa 0,0 l/m 0 min 0 min 0 W/m 12,9 km/h (3 Bft) 95,74 %
10.12.2020 21:56 0,4 C 0,0 C -1,2 C 92 % 1005,5 hPa 0,0 l/m 0 min 0 min 0 W/m 6,4 km/h (2 Bft) 97,83 %
10.12.2020 21:58 0,4 C 0,0 C -1,2 C 92 % 1005,5 hPa 0,0 l/m 0 min 0 min 0 W/m 6,4 km/h (2 Bft) 97,87 %
10.12.2020 22:00 0,4 C 0,0 C -1,2 C 92 % 1005,4 hPa 0,0 l/m 0 min 0 min 0 W/m 3,2 km/h (1 Bft) 95,74 %
10.12.2020 22:02 0,4 C 0,0 C -1,2 C 92 % 1005,4 hPa 0,0 l/m 0 min 0 min 0 W/m 12,9 km/h (3 Bft) 95,74 %
10.12.2020 22:04 0,4 C 0,0 C -1,2 C 92 % 1005,4 hPa 0,0 l/m 0 min 0 min 0 W/m 6,4 km/h (2 Bft) 97,87 %
10.12.2020 22:06 0,4 C 0,0 C -1,2 C 92 % 1005,4 hPa 0,0 l/m 0 min 0 min 0 W/m 12,9 km/h (3 Bft) 100,00 %
10.12.2020 22:08 0,4 C 0,0 C -1,2 C 92 % 1005,3 hPa 0,0 l/m 0 min 0 min 0 W/m 3,2 km/h (1 Bft) 97,87 %
10.12.2020 22:10 0,4 C 0,0 C -1,2 C 92 % 1005,3 hPa 0,0 l/m 0 min 0 min 0 W/m 6,4 km/h (2 Bft) 100,00 %
10.12.2020 22:12 0,4 C 0,0 C -1,2 C 92 % 1005,2 hPa 0,0 l/m 0 min 0 min 0 W/m 6,4 km/h (2 Bft) 100,00 %
10.12.2020 22:14 0,4 C 0,0 C -1,2 C 92 % 1005,2 hPa 0,0 l/m 0 min 0 min 0 W/m 12,9 km/h (3 Bft) 100,00 %
10.12.2020 22:16 0,4 C 0,0 C -1,2 C 92 % 1005,2 hPa 0,0 l/m 0 min 0 min 0 W/m 12,9 km/h (3 Bft) 100,00 %
10.12.2020 22:18 0,4 C 0,0 C -1,2 C 92 % 1005,1 hPa 0,0 l/m 0 min 0 min 0 W/m 9,7 km/h (2 Bft) 100,00 %
10.12.2020 22:20 0,3 C 0,0 C -1,2 C 92 % 1005,1 hPa 0,0 l/m 0 min 0 min 0 W/m 22,5 km/h (4 Bft) 100,00 %
10.12.2020 22:22 0,3 C 0,0 C -1,2 C 92 % 1005,0 hPa 0,0 l/m 0 min 0 min 0 W/m 12,9 km/h (3 Bft) 97,87 %
10.12.2020 22:24 0,3 C 0,0 C -1,2 C 92 % 1005,1 hPa 0,0 l/m 0 min 0 min 0 W/m 12,9 km/h (3 Bft) 100,00 %
10.12.2020 22:26 0,3 C 0,0 C -1,2 C 92 % 1005,0 hPa 0,0 l/m 0 min 0 min 0 W/m 16,1 km/h (3 Bft) 97,87 %
10.12.2020 22:28 0,3 C 0,0 C -1,2 C 92 % 1005,0 hPa 0,0 l/m 0 min 0 min 0 W/m 12,9 km/h (3 Bft) 100,00 %
10.12.2020 22:30 0,3 C 0,0 C -1,2 C 92 % 1005,0 hPa 0,0 l/m 0 min 0 min 0 W/m 12,9 km/h (3 Bft) 100,00 %
10.12.2020 22:32 0,3 C 0,0 C -1,2 C 92 % 1005,0 hPa 0,0 l/m 0 min 0 min 0 W/m 19,3 km/h (3 Bft) 100,00 %
10.12.2020 22:34 0,3 C 0,0 C -1,2 C 92 % 1004,9 hPa 0,0 l/m 0 min 0 min 0 W/m 12,9 km/h (3 Bft) 100,00 %
10.12.2020 22:36 0,3 C 0,0 C -1,2 C 92 % 1004,9 hPa 0,0 l/m 0 min 0 min 0 W/m 12,9 km/h (3 Bft) 97,87 %
10.12.2020 22:38 0,3 C 0,0 C -1,2 C 92 % 1004,9 hPa 0,0 l/m 0 min 0 min 0 W/m 6,4 km/h (2 Bft) 100,00 %
10.12.2020 22:40 0,3 C 0,0 C -1,2 C 92 % 1004,8 hPa 0,0 l/m 0 min 0 min 0 W/m 19,3 km/h (3 Bft) 100,00 %
10.12.2020 22:42 0,3 C 0,0 C -1,2 C 91 % 1004,8 hPa 0,0 l/m 0 min 0 min 0 W/m 16,1 km/h (3 Bft) 100,00 %
10.12.2020 22:44 0,3 C 0,0 C -1,2 C 91 % 1004,9 hPa 0,0 l/m 0 min 0 min 0 W/m 16,1 km/h (3 Bft) 100,00 %
10.12.2020 22:46 0,3 C 0,0 C -1,2 C 91 % 1004,8 hPa 0,0 l/m 0 min 0 min 0 W/m 19,3 km/h (3 Bft) 100,00 %
10.12.2020 22:48 0,3 C 0,0 C -1,2 C 91 % 1004,8 hPa 0,0 l/m 0 min 0 min 0 W/m 12,9 km/h (3 Bft) 97,87 %
10.12.2020 22:50 0,3 C 0,0 C -1,2 C 91 % 1004,8 hPa 0,0 l/m 0 min 0 min 0 W/m 16,1 km/h (3 Bft) 100,00 %
10.12.2020 22:52 0,3 C 0,0 C -1,2 C 91 % 1004,8 hPa 0,0 l/m 0 min 0 min 0 W/m 19,3 km/h (3 Bft) 100,00 %
10.12.2020 22:54 0,3 C 0,0 C -1,2 C 91 % 1004,8 hPa 0,0 l/m 0 min 0 min 0 W/m 6,4 km/h (2 Bft) 100,00 %
10.12.2020 22:56 0,3 C -0,6 C -1,2 C 91 % 1004,7 hPa 0,0 l/m 0 min 0 min 0 W/m 12,9 km/h (3 Bft) 100,00 %
10.12.2020 22:58 0,3 C -0,6 C -1,2 C 91 % 1004,6 hPa 0,0 l/m 0 min 0 min 0 W/m 12,9 km/h (3 Bft) 100,00 %
10.12.2020 23:00 0,2 C -0,6 C -1,2 C 91 % 1004,6 hPa 0,0 l/m 0 min 0 min 0 W/m 16,1 km/h (3 Bft) 100,00 %
10.12.2020 23:02 0,2 C -0,6 C -1,2 C 91 % 1004,5 hPa 0,0 l/m 0 min 0 min 0 W/m 22,5 km/h (4 Bft) 100,00 %
10.12.2020 23:04 0,2 C 0,0 C -1,2 C 91 % 1004,5 hPa 0,0 l/m 0 min 0 min 0 W/m 19,3 km/h (3 Bft) 97,87 %
10.12.2020 23:06 0,2 C -0,6 C -1,2 C 91 % 1004,5 hPa 0,0 l/m 0 min 0 min 0 W/m 16,1 km/h (3 Bft) 100,00 %
10.12.2020 23:08 0,2 C -0,6 C -1,2 C 91 % 1004,5 hPa 0,0 l/m 0 min 0 min 0 W/m 22,5 km/h (4 Bft) 100,00 %
10.12.2020 23:10 0,2 C -0,6 C -1,2 C 91 % 1004,5 hPa 0,0 l/m 0 min 0 min 0 W/m 16,1 km/h (3 Bft) 100,00 %
10.12.2020 23:12 0,2 C -0,6 C -1,2 C 91 % 1004,5 hPa 0,0 l/m 0 min 0 min 0 W/m 6,4 km/h (2 Bft) 97,87 %
10.12.2020 23:14 0,2 C -0,6 C -1,2 C 91 % 1004,5 hPa 0,0 l/m 0 min 0 min 0 W/m 16,1 km/h (3 Bft) 100,00 %
10.12.2020 23:16 0,1 C -0,6 C -1,2 C 91 % 1004,5 hPa 0,0 l/m 0 min 0 min 0 W/m 12,9 km/h (3 Bft) 100,00 %
10.12.2020 23:18 0,1 C -0,6 C -1,2 C 91 % 1004,4 hPa 0,0 l/m 0 min 0 min 0 W/m 12,9 km/h (3 Bft) 100,00 %
10.12.2020 23:20 0,1 C -0,6 C -1,2 C 91 % 1004,5 hPa 0,0 l/m 0 min 0 min 0 W/m 19,3 km/h (3 Bft) 100,00 %
10.12.2020 23:22 0,1 C -0,6 C -1,2 C 91 % 1004,5 hPa 0,0 l/m 0 min 0 min 0 W/m 16,1 km/h (3 Bft) 97,83 %
10.12.2020 23:24 0,1 C -0,6 C -1,2 C 91 % 1004,5 hPa 0,0 l/m 0 min 0 min 0 W/m 12,9 km/h (3 Bft) 100,00 %
10.12.2020 23:26 0,1 C -0,6 C -1,2 C 91 % 1004,4 hPa 0,0 l/m 0 min 0 min 0 W/m 16,1 km/h (3 Bft) 100,00 %
10.12.2020 23:28 0,1 C -0,6 C -1,2 C 91 % 1004,4 hPa 0,0 l/m 0 min 0 min 0 W/m 16,1 km/h (3 Bft) 100,00 %
10.12.2020 23:30 0,1 C -0,6 C -1,2 C 91 % 1004,4 hPa 0,0 l/m 0 min 0 min 0 W/m 16,1 km/h (3 Bft) 100,00 %
10.12.2020 23:32 0,1 C -0,6 C -1,2 C 91 % 1004,4 hPa 0,0 l/m 0 min 0 min 0 W/m 22,5 km/h (4 Bft) 97,87 %
10.12.2020 23:34 0,1 C -0,6 C -1,2 C 91 % 1004,4 hPa 0,0 l/m 0 min 0 min 0 W/m 12,9 km/h (3 Bft) 97,83 %
10.12.2020 23:36 0,1 C 0,0 C -1,2 C 91 % 1004,4 hPa 0,0 l/m 0 min 0 min 0 W/m 22,5 km/h (4 Bft) 95,74 %
10.12.2020 23:38 0,1 C 0,0 C -1,2 C 91 % 1004,3 hPa 0,0 l/m 0 min 0 min 0 W/m 29,0 km/h (5 Bft) 97,87 %
10.12.2020 23:40 0,1 C 0,0 C -1,2 C 91 % 1004,4 hPa 0,0 l/m 0 min 0 min 0 W/m 12,9 km/h (3 Bft) 97,87 %
10.12.2020 23:42 0,1 C 0,0 C -1,2 C 91 % 1004,3 hPa 0,0 l/m 0 min 0 min 0 W/m 16,1 km/h (3 Bft) 97,87 %
10.12.2020 23:44 0,1 C 0,0 C -1,2 C 91 % 1004,2 hPa 0,0 l/m 0 min 0 min 0 W/m 22,5 km/h (4 Bft) 97,87 %
10.12.2020 23:46 0,2 C 0,0 C -1,2 C 91 % 1004,3 hPa 0,0 l/m 0 min 0 min 0 W/m 22,5 km/h (4 Bft) 95,65 %
10.12.2020 23:48 0,2 C 0,0 C -1,2 C 91 % 1004,3 hPa 0,0 l/m 0 min 0 min 0 W/m 16,1 km/h (3 Bft) 97,87 %
10.12.2020 23:50 0,2 C 0,0 C -1,2 C 91 % 1004,2 hPa 0,0 l/m 0 min 0 min 0 W/m 22,5 km/h (4 Bft) 97,87 %
10.12.2020 23:52 0,2 C 0,0 C -1,2 C 92 % 1004,3 hPa 0,0 l/m 0 min 0 min 0 W/m 19,3 km/h (3 Bft) 97,87 %
10.12.2020 23:54 0,2 C 0,0 C -1,2 C 92 % 1004,3 hPa 0,0 l/m 0 min 0 min 0 W/m 19,3 km/h (3 Bft) 97,87 %
10.12.2020 23:56 0,3 C 0,0 C -1,2 C 92 % 1004,4 hPa 0,0 l/m 0 min 0 min 0 W/m 19,3 km/h (3 Bft) 93,62 %
10.12.2020 23:58 0,3 C 0,0 C -1,2 C 92 % 1004,3 hPa 0,0 l/m 0 min 0 min 0 W/m 22,5 km/h (4 Bft) 97,83 %
_ Min-Zeit 08:02 07:50 06:54 22:42 23:44 - - - - 00:02 04:48
Minimum _ -1,5 C -2,2 C -2,8 C 91 % 1004,2 hPa - - - - 0,0 km/h (0 Bft) 50,00 %
_ Max-Zeit 14:26 11:30 10:10 09:45 00:10 11:20 00:00 00:00 11:28 23:38 01:10
Maximum _ 2,1 C 2,2 C 1,1 C 98 % 1009,8 hPa 0,2 l/m 0 min 0 min 104 W/m 29,0 km/h
S (5 Bft)
100,00 %
Durchschnitt _ 0,2 C -0,1 C -1,0 C 95 % 1007,1 hPa #0,2 l/m #0 min. #0 min. 36 W/m 4,8 km/h (1 Bft) 97,84 %
© 2020 W. Hausmann